Thien Thanh — WDH4287 — position and weather

sailwx.info

Track history (hours):
 
Tides and Currents Weather Stations Pressure Air Temp Water Temp Dewpoint Dewpoint Depression Visibility Wind Speed Wind Dir Waves Ship Positions

Thien Thanh

Owner: tran, trang h, ROSHARON, TX. More information available from US FCC via Universal Licensing System and Coast Guard Vessel Documentation Center.

Last reported at 2018-Jun-23 21:29 UTC. Time now 2018-Jun-23 21:44 UTC.
Position N 40°43' W 074°03'.

Length 16 m; draft 7.7 m.

Type: Pleasure craft. MMSI: 367616050.

Date/timePositionNaut miles runAvg speedWind from/ knotsBaromVisibWave heightAir tempDewpointWater temp
2018-Jun-23 21:29N 40°43' W 074°03'117411776.2
2018-Jun-23 21:24N 29°44' W 093°53'11742935.9
2018-Jun-23 21:00N 40°43' W 074°03'11741409220.2
2018-Jun-23 20:59N 29°44' W 093°53'11752393.3
2018-Jun-23 20:30N 40°43' W 074°02'1175128151.6
2018-Jun-23 20:29N 29°44' W 093°53'11732432.6
2018-Jun-23 20:01N 40°40' W 074°03'117367031.5
2018-Jun-23 19:59N 29°44' W 093°53'11732430.5
2018-Jun-23 19:31N 40°41' W 074°03'117310010.1
2018-Jun-23 19:23N 29°44' W 093°53'11733000.9
2018-Jun-23 19:00N 40°40' W 074°03'1173127946.6
2018-Jun-23 18:59N 29°44' W 093°53'11742392.0
2018-Jun-23 18:30N 40°41' W 074°02'1174124315.6
2018-Jun-23 18:29N 29°44' W 093°53'11732391.9
2018-Jun-23 18:00N 40°40' W 074°02'1173132001.6
2018-Jun-23 17:59N 29°44' W 093°53'11732387.7
2018-Jun-23 17:30N 40°40' W 074°03'11737367.2
2018-Jun-23 17:20N 29°44' W 093°53'11733526.7
2018-Jun-23 17:01N 40°40' W 074°03'117367008.1
2018-Jun-23 16:59N 29°44' W 093°53'11732354.8
2018-Jun-23 16:30N 40°39' W 074°02'1173527771.4
2018-Jun-23 16:29N 29°44' W 093°53'11742394.0
2018-Jun-23 16:00N 40°41' W 074°02'117419744.6
2018-Jun-23 15:56N 29°44' W 093°53'11742675.8
2018-Jun-23 15:30N 40°43' W 074°03'1174105693.1
2018-Jun-23 15:29N 29°44' W 093°53'11742325.5
2018-Jun-23 14:59N 40°43' W 074°03'117425936.6
2018-Jun-23 14:56N 29°44' W 093°53'0 0.0
2018-Jun-23 14:30N 29°44' W 093°53'1174222507.7
2018-Jun-23 14:29N 40°43' W 074°03'11742372.4
2018-Jun-23 13:59N 29°44' W 093°53'1174222508.5
2018-Jun-23 13:59N 40°43' W 074°03'11742372.4
2018-Jun-23 13:29N 29°44' W 093°53'1174264228.8
2018-Jun-23 13:29N 40°43' W 074°03'11742368.4
2018-Jun-23 12:59N 29°44' W 093°53'1174264228.8
2018-Jun-23 12:59N 40°43' W 074°03'11742372.4
2018-Jun-23 12:29N 29°44' W 093°53'1174234869.2
2018-Jun-23 12:29N 40°43' W 074°03'11742372.4
2018-Jun-23 11:59N 29°44' W 093°53'1174248685.1
2018-Jun-23 11:59N 40°43' W 074°03'11742371.1
2018-Jun-23 11:29N 29°44' W 093°53'1174222507.7
2018-Jun-23 11:29N 40°43' W 074°03'11742371.1
2018-Jun-23 10:59N 29°44' W 093°53'117421460.1
2018-Jun-23 10:56N 40°43' W 074°03'11742639.0
2018-Jun-23 10:29N 29°44' W 093°53'1174248685.1
2018-Jun-23 10:29N 40°43' W 074°03'0 0.0
2018-Jun-23 09:59N 40°43' W 074°03'117426258.7
2018-Jun-23 09:56N 29°44' W 093°53'0 0.0
2018-Jun-23 09:29N 29°44' W 093°53'1174248685.1
2018-Jun-23 09:29N 40°43' W 074°03'11742372.4
2018-Jun-23 08:59N 29°44' W 093°53'1174222508.5
2018-Jun-23 08:59N 40°43' W 074°03'11742369.8
2018-Jun-23 08:29N 29°44' W 093°53'1174281844.0
2018-Jun-23 08:29N 40°43' W 074°03'11742369.8
2018-Jun-23 07:59N 29°44' W 093°53'1174248685.9
2018-Jun-23 07:59N 40°43' W 074°03'11742372.4
2018-Jun-23 07:29N 29°44' W 093°53'1174234870.0
2018-Jun-23 07:29N 40°43' W 074°03'11742373.8
2018-Jun-23 06:59N 29°44' W 093°53'1174222508.5
2018-Jun-23 06:59N 40°43' W 074°03'11742371.1
2018-Jun-23 06:29N 29°44' W 093°53'1174248685.9
2018-Jun-23 06:29N 40°43' W 074°03'11742375.1
2018-Jun-23 06:00N 29°44' W 093°53'1174211383.0
2018-Jun-23 05:59N 40°43' W 074°03'11742373.8
2018-Jun-23 05:29N 29°44' W 093°53'1174264228.8
2018-Jun-23 05:29N 40°43' W 074°03'11742367.1
2018-Jun-23 04:59N 29°44' W 093°53'1174248685.1
2018-Jun-23 04:59N 40°43' W 074°03'11742371.1
2018-Jun-23 04:29N 29°44' W 093°53'1174281844.0
2018-Jun-23 04:29N 40°43' W 074°03'0 0.0
2018-Jun-23 03:59N 40°43' W 074°03'117425622.1
2018-Jun-23 03:56N 29°44' W 093°53'0 0.0
2018-Jun-23 03:26N 29°44' W 093°53'1174281843.1
2018-Jun-23 03:26N 40°43' W 074°03'11742632.4
2018-Jun-23 02:59N 29°44' W 093°53'1174301974.7
2018-Jun-23 02:59N 40°43' W 074°03'0 0.0
2018-Jun-23 02:29N 40°43' W 074°03'117412254.0
2018-Jun-23 02:23N 29°44' W 093°53'11742903.6
2018-Jun-23 01:59N 40°43' W 074°03'117412289.7
2018-Jun-23 01:53N 29°44' W 093°53'11742905.6
2018-Jun-23 01:29N 40°43' W 074°03'117412254.0
2018-Jun-23 01:23N 29°44' W 093°53'0 0.0
2018-Jun-23 00:59N 29°44' W 093°53'1174222507.7
2018-Jun-23 00:59N 40°43' W 074°03'11742373.7
2018-Jun-23 00:29N 29°44' W 093°53'1174234869.2
2018-Jun-23 00:29N 40°43' W 074°03'0 0.0
2018-Jun-22 23:59N 40°43' W 074°03'11748068.1
2018-Jun-22 23:50N 29°44' W 093°53'0 0.0
2018-Jun-22 23:30N 29°44' W 093°53'117454904.7
2018-Jun-22 23:29N 40°43' W 074°03'1 1.3
2018-Jun-22 23:00N 40°43' W 074°02'1175302142.8
2018-Jun-22 22:59N 29°44' W 093°53'11752414.1
2018-Jun-22 22:30N 40°42' W 074°01'117591944.4
2018-Jun-22 22:29N 29°44' W 093°53'11752365.6
2018-Jun-22 22:00N 40°42' W 074°02'1175302125.0
2018-Jun-22 21:59N 29°44' W 093°53'11742296.4
2018-Jun-22 21:29N 40°43' W 074°03'117430414.7
2018-Jun-22 21:26N 29°44' W 093°53'0 0.0
2018-Jun-22 20:59N 29°44' W 093°53'117498317.4
2018-Jun-22 20:59N 40°43' W 074°03'11742406.2
2018-Jun-22 20:29N 29°44' W 093°53'117498317.4
2018-Jun-22 20:29N 40°43' W 074°03'11742407.5
2018-Jun-22 19:59N 29°44' W 093°53'117496083.2
2018-Jun-22 19:59N 40°43' W 074°03'0 0.0
2018-Jun-22 19:29N 40°43' W 074°03'0 0.0
2018-Jun-22 18:59N 40°43' W 074°03'0 0.0
2018-Jun-22 18:29N 40°43' W 074°03'1 1.5
2018-Jun-22 18:00N 40°42' W 074°02'3 5.3
2018-Jun-22 17:29N 40°40' W 074°02'1 1.3
2018-Jun-22 16:58N 40°39' W 074°02'2 3.2
2018-Jun-22 16:30N 40°41' W 074°02'2 4.2
2018-Jun-22 15:59N 40°43' W 074°03'0 0.0
2018-Jun-22 15:29N 40°43' W 074°03'0 0.0
2018-Jun-22 14:59N 40°43' W 074°03'0 0.0
2018-Jun-22 14:29N 40°43' W 074°03'0 0.0
2018-Jun-22 13:59N 40°43' W 074°03'0 0.0
2018-Jun-22 13:29N 40°43' W 074°03'0 0.0
2018-Jun-22 12:59N 40°43' W 074°03'0 0.0
2018-Jun-22 12:29N 40°43' W 074°03'0 0.0
2018-Jun-22 11:59N 40°43' W 074°03'0 0.0
2018-Jun-22 11:29N 40°43' W 074°03'0 0.0
2018-Jun-22 10:59N 40°43' W 074°03'0 0.0
2018-Jun-22 10:27N 40°43' W 074°03'0 0.0
2018-Jun-22 10:00N 40°43' W 074°03'0 0.0
2018-Jun-22 09:30N 40°43' W 074°03'0 0.0
2018-Jun-22 08:59N 40°43' W 074°03'0 0.0
2018-Jun-22 08:29N 40°43' W 074°03'0 0.0
2018-Jun-22 07:59N 40°43' W 074°03'0 0.0
2018-Jun-22 07:29N 40°43' W 074°03'0 0.0
2018-Jun-22 06:59N 40°43' W 074°03'0 0.0
2018-Jun-22 06:29N 40°43' W 074°03'0 0.0
2018-Jun-22 05:59N 40°43' W 074°03'0 0.0
2018-Jun-22 05:29N 40°43' W 074°03'0 0.0
2018-Jun-22 05:00N 40°43' W 074°03'0 0.0
2018-Jun-22 04:30N 40°43' W 074°03'0 0.0
2018-Jun-22 04:00N 40°43' W 074°03'0 0.0
2018-Jun-22 03:30N 40°43' W 074°03'0 0.0
2018-Jun-22 03:00N 40°43' W 074°03'0 0.0
2018-Jun-22 02:30N 40°43' W 074°03'0 0.0
2018-Jun-22 02:00N 40°43' W 074°03'0 0.0
2018-Jun-22 01:30N 40°43' W 074°03'0 0.0
2018-Jun-22 01:00N 40°43' W 074°03'0 0.0
2018-Jun-22 00:30N 40°43' W 074°03'0 0.0
2018-Jun-22 00:00N 40°43' W 074°03'0 0.0
2018-Jun-21 23:30N 40°43' W 074°03'0 0.0
2018-Jun-21 23:00N 40°43' W 074°03'0 0.0
2018-Jun-21 22:30N 40°43' W 074°03'0 0.0
2018-Jun-21 22:00N 40°43' W 074°03'0 0.0
2018-Jun-21 21:30N 40°43' W 074°03'0 0.0
2018-Jun-21 21:00N 40°43' W 074°03'0 0.0
2018-Jun-21 20:30N 40°43' W 074°03'117414092.2
2018-Jun-21 20:25N 29°44' W 093°53'11742814.7
2018-Jun-21 20:00N 40°43' W 074°03'117435526.4
2018-Jun-21 19:58N 29°44' W 093°53'11742518.0
2018-Jun-21 19:30N 40°43' W 074°03'11748807.6
2018-Jun-21 19:22N 29°44' W 093°53'11743207.6
2018-Jun-21 19:00N 40°43' W 074°03'117434371.1
2018-Jun-21 18:58N 29°44' W 093°53'11742515.0
2018-Jun-21 18:30N 40°43' W 074°03'11748826.0
2018-Jun-21 18:22N 29°44' W 093°53'11743202.8
2018-Jun-21 18:00N 40°43' W 074°03'117435230.5
2018-Jun-21 17:58N 29°44' W 093°53'0 0.0
2018-Jun-21 17:28N 29°44' W 093°53'117472890.4
2018-Jun-21 17:27N 40°43' W 074°03'0 0.0
2018-Jun-21 17:00N 40°43' W 074°03'117436133.9
2018-Jun-21 16:58N 29°44' W 093°53'11742512.0
2018-Jun-21 16:30N 40°43' W 074°03'117435526.4
2018-Jun-21 16:28N 29°44' W 093°53'11742515.0
2018-Jun-21 16:00N 40°43' W 074°03'11748826.0
2018-Jun-21 15:52N 29°44' W 093°53'11743200.3
2018-Jun-21 15:30N 40°43' W 074°03'117414186.8
2018-Jun-21 15:25N 29°44' W 093°53'11742814.7
2018-Jun-21 15:00N 40°43' W 074°03'117435526.6
2018-Jun-21 14:58N 29°44' W 093°53'11742515.0
2018-Jun-21 14:30N 40°43' W 074°03'117436133.7
2018-Jun-21 14:28N 29°44' W 093°53'11742516.5
2018-Jun-21 14:00N 40°43' W 074°03'117434939.3
2018-Jun-21 13:58N 29°44' W 093°53'11742515.0
2018-Jun-21 13:30N 40°43' W 074°03'117435828.1
2018-Jun-21 13:28N 29°44' W 093°53'11742512.0
2018-Jun-21 13:00N 40°43' W 074°03'11745033.0
2018-Jun-21 12:46N 29°44' W 093°53'11744408.5
2018-Jun-21 12:30N 40°43' W 074°03'117435230.9
2018-Jun-21 12:28N 29°44' W 093°53'11742519.5
2018-Jun-21 12:00N 40°43' W 074°03'117435230.9
2018-Jun-21 11:58N 29°44' W 093°53'11742456.5
2018-Jun-21 11:29N 40°43' W 074°03'117452846.5
2018-Jun-21 11:28N 29°44' W 093°53'11742225.1
2018-Jun-21 10:56N 40°43' W 074°03'11744314.0
2018-Jun-21 10:40N 29°44' W 093°53'11746616.1
2018-Jun-21 10:29N 40°43' W 074°03'117452846.3
2018-Jun-21 10:28N 29°44' W 093°53'11742459.4
2018-Jun-21 09:59N 40°43' W 074°03'117451557.4
2018-Jun-21 09:58N 29°44' W 093°53'11742458.0
2018-Jun-21 09:29N 40°43' W 074°03'117454905.3
2018-Jun-21 09:28N 29°44' W 093°53'11742453.7
2018-Jun-21 08:59N 40°43' W 074°03'11749630.3
2018-Jun-21 08:52N 29°44' W 093°53'11743110.9
2018-Jun-21 08:29N 40°43' W 074°03'117451557.6
2018-Jun-21 08:28N 29°44' W 093°53'11742459.4
2018-Jun-21 07:59N 40°43' W 074°03'117451557.4
2018-Jun-21 07:58N 29°44' W 093°53'11742460.8
2018-Jun-21 07:29N 40°43' W 074°03'11743641.4
2018-Jun-21 07:10N 29°44' W 093°53'11746605.8
2018-Jun-21 06:59N 40°43' W 074°03'117452846.3
2018-Jun-21 06:58N 29°44' W 093°53'11742458.0
2018-Jun-21 06:29N 40°43' W 074°03'117451557.4
2018-Jun-21 06:28N 29°44' W 093°53'11742465.1
2018-Jun-21 05:59N 40°43' W 074°03'117452194.1
2018-Jun-21 05:58N 29°44' W 093°53'11742456.5
2018-Jun-21 05:29N 40°43' W 074°03'11743157.4
2018-Jun-21 05:07N 29°44' W 093°53'11749190.7
2018-Jun-21 04:59N 40°43' W 074°03'11745278.1
2018-Jun-21 04:46N 29°44' W 093°53'11744236.2
2018-Jun-21 04:29N 40°43' W 074°03'11749543.4
2018-Jun-21 04:22N 29°44' W 093°53'11743122.4
2018-Jun-21 03:59N 40°43' W 074°03'117448594.3
2018-Jun-21 03:58N 29°44' W 093°53'11742459.4
2018-Jun-21 03:29N 40°43' W 074°03'117416323.2
2018-Jun-21 03:25N 29°44' W 093°53'11742745.3
2018-Jun-21 02:59N 40°43' W 074°03'11749565.0
2018-Jun-21 02:52N 29°44' W 093°53'11743122.4
2018-Jun-21 02:29N 40°43' W 074°03'117450330.0
2018-Jun-21 02:28N 29°44' W 093°53'11742459.4
2018-Jun-21 01:59N 40°43' W 074°03'11749521.9
2018-Jun-21 01:52N 29°44' W 093°53'11743124.7
2018-Jun-21 01:29N 40°43' W 074°03'117449737.7
2018-Jun-21 01:28N 29°44' W 093°53'11742227.5
2018-Jun-21 00:56N 40°43' W 074°03'11746807.9
2018-Jun-21 00:46N 29°44' W 093°53'11744236.2
2018-Jun-21 00:29N 40°43' W 074°03'0 0.0
2018-Jun-20 23:59N 40°43' W 074°03'11743638.3
2018-Jun-20 23:40N 29°44' W 093°53'11757305.0
2018-Jun-20 23:30N 40°43' W 074°02'117513135.4
2018-Jun-20 23:25N 29°44' W 093°53'11752861.3
2018-Jun-20 23:00N 40°42' W 074°02'117529992.5
2018-Jun-20 22:58N 29°44' W 093°53'11752552.8
2018-Jun-20 22:30N 40°43' W 074°02'117529579.9
2018-Jun-20 22:28N 29°44' W 093°53'11752551.3
2018-Jun-20 22:00N 40°43' W 074°02'117530000.2
2018-Jun-20 21:58N 29°44' W 093°53'11742417.2
2018-Jun-20 21:29N 40°43' W 074°03'117410211.8
2018-Jun-20 21:22N 29°44' W 093°53'11743052.5
2018-Jun-20 20:59N 40°43' W 074°03'117479767.8
2018-Jun-20 20:58N 29°44' W 093°53'11742425.5
2018-Jun-20 20:29N 40°43' W 074°03'117475495.0
2018-Jun-20 20:28N 29°44' W 093°53'11742420.0
2018-Jun-20 19:59N 40°43' W 074°03'117476866.8
2018-Jun-20 19:58N 29°44' W 093°53'11742425.5
2018-Jun-20 19:29N 40°43' W 074°03'117472891.2
2018-Jun-20 19:28N 29°44' W 093°53'0 0.0
2018-Jun-20 18:58N 29°44' W 093°53'1174176153.3
2018-Jun-20 18:58N 40°43' W 074°03'11742385.8
2018-Jun-20 18:28N 29°44' W 093°53'1174162603.6
2018-Jun-20 18:28N 40°43' W 074°03'11742381.8
2018-Jun-20 17:58N 29°44' W 093°53'1174162603.0
2018-Jun-20 17:58N 40°43' W 074°03'11742380.4
2018-Jun-20 17:28N 29°44' W 093°53'1174176153.7
2018-Jun-20 17:28N 40°43' W 074°03'11742379.1
2018-Jun-20 16:58N 29°44' W 093°53'117421033.3
2018-Jun-20 16:55N 40°43' W 074°03'11742645.6
2018-Jun-20 16:28N 29°44' W 093°53'117420622.9
2018-Jun-20 16:25N 40°43' W 074°03'11742650.6
2018-Jun-20 15:58N 29°44' W 093°53'1174169108.3
2018-Jun-20 15:58N 40°43' W 074°03'11742495.4
2018-Jun-20 15:30N 29°44' W 093°53'117440259.9
2018-Jun-20 15:28N 40°43' W 074°03'0 0.0
2018-Jun-20 14:58N 40°43' W 074°03'1174234873.6
2018-Jun-20 14:58N 29°44' W 093°53'11742373.8
2018-Jun-20 14:28N 40°43' W 074°03'1174201320.9
2018-Jun-20 14:28N 29°44' W 093°53'11742377.8
2018-Jun-20 13:58N 40°43' W 074°03'117411038.4
2018-Jun-20 13:52N 29°44' W 093°53'11742983.6
2018-Jun-20 13:28N 40°43' W 074°03'117411096.4
2018-Jun-20 13:22N 29°44' W 093°53'11742977.3
2018-Jun-20 12:58N 40°43' W 074°03'117411154.9
2018-Jun-20 12:52N 29°44' W 093°53'11742975.2
2018-Jun-20 12:28N 40°43' W 074°03'1174201319.5
2018-Jun-20 12:28N 29°44' W 093°53'11742376.5
2018-Jun-20 11:58N 40°43' W 074°03'1174222511.0
2018-Jun-20 11:58N 29°44' W 093°53'0 0.0
2018-Jun-20 11:31N 29°44' W 093°53'117426928.1
2018-Jun-20 11:28N 40°43' W 074°03'0 0.0
2018-Jun-20 10:58N 40°43' W 074°03'0 0.0
2018-Jun-20 10:28N 40°43' W 074°03'1174192168.6
2018-Jun-20 10:28N 29°44' W 093°53'0 0.0
2018-Jun-20 10:01N 29°44' W 093°53'117426589.4
2018-Jun-20 09:58N 40°43' W 074°03'0 0.0
2018-Jun-20 09:25N 40°43' W 074°03'11744590.3
2018-Jun-20 09:10N 29°44' W 093°53'11746056.9
2018-Jun-20 08:58N 40°43' W 074°03'1174222511.0
2018-Jun-20 08:58N 29°44' W 093°53'0 0.0
2018-Jun-20 08:31N 29°44' W 093°53'117426589.4
2018-Jun-20 08:28N 40°43' W 074°03'11742574.7
2018-Jun-20 08:01N 29°44' W 093°53'117426928.1
2018-Jun-20 07:58N 40°43' W 074°03'0 0.0
2018-Jun-20 07:28N 40°43' W 074°03'1174192168.6
2018-Jun-20 07:28N 29°44' W 093°53'11742377.8
2018-Jun-20 06:58N 40°43' W 074°03'1174183814.1
2018-Jun-20 06:58N 29°44' W 093°53'11742377.8
2018-Jun-20 06:28N 40°43' W 074°03'117421244.8
2018-Jun-20 06:25N 29°44' W 093°53'11742642.3
2018-Jun-20 05:58N 40°43' W 074°03'117421033.4
2018-Jun-20 05:55N 29°44' W 093°53'11742647.3
2018-Jun-20 05:28N 40°43' W 074°03'1174176154.6
2018-Jun-20 05:28N 29°44' W 093°53'11742376.5
2018-Jun-20 04:58N 40°43' W 074°03'11744605.4
2018-Jun-20 04:43N 29°44' W 093°53'0 0.0
2018-Jun-20 04:28N 29°44' W 093°53'117426757.7
2018-Jun-20 04:25N 40°43' W 074°03'0 0.0
2018-Jun-20 03:58N 40°43' W 074°03'1174211385.5
2018-Jun-20 03:58N 29°44' W 093°53'11742375.1
2018-Jun-20 03:28N 40°43' W 074°03'117421138.5
2018-Jun-20 03:25N 29°44' W 093°53'11742642.3
2018-Jun-20 02:58N 40°43' W 074°03'0 0.0
2018-Jun-20 02:28N 40°43' W 074°03'117411154.9
2018-Jun-20 02:22N 29°44' W 093°53'11742975.2
2018-Jun-20 01:58N 40°43' W 074°03'1174211385.5
2018-Jun-20 01:58N 29°44' W 093°53'11742376.5
2018-Jun-20 01:28N 40°43' W 074°03'1174201320.2
2018-Jun-20 01:28N 29°44' W 093°53'11742376.5
2018-Jun-20 00:58N 40°43' W 074°03'1174201319.5
2018-Jun-20 00:58N 29°44' W 093°53'11742379.1
2018-Jun-20 00:28N 40°43' W 074°03'117420929.3
2018-Jun-20 00:25N 29°44' W 093°53'11742788.7
2018-Jun-19 23:59N 40°43' W 074°03'11745112.1
2018-Jun-19 23:46N 29°44' W 093°53'11744345.0
2018-Jun-19 23:29N 40°43' W 074°03'11746564.8
2018-Jun-19 23:19N 29°44' W 093°53'11743644.6
2018-Jun-19 22:59N 40°43' W 074°03'117441858.5
2018-Jun-19 22:58N 29°44' W 093°53'11742488.4
2018-Jun-19 22:29N 40°43' W 074°03'11745155.7
2018-Jun-19 22:16N 29°44' W 093°53'11744318.4
2018-Jun-19 21:59N 40°43' W 074°03'11746605.8
2018-Jun-19 21:49N 29°44' W 093°53'11743644.6
2018-Jun-19 21:29N 40°43' W 074°03'117440651.1
2018-Jun-19 21:28N 29°44' W 093°53'11742492.8
2018-Jun-19 20:59N 40°43' W 074°03'117414886.3
2018-Jun-19 20:55N 29°44' W 093°53'11742788.7
2018-Jun-19 20:29N 40°43' W 074°03'117415099.0
2018-Jun-19 20:25N 29°44' W 093°53'11742779.6
2018-Jun-19 19:59N 40°43' W 074°03'117441858.6
2018-Jun-19 19:58N 29°44' W 093°53'11742488.4
2018-Jun-19 19:29N 40°43' W 074°03'117415099.0
2018-Jun-19 19:25N 29°44' W 093°53'11742783.2
2018-Jun-19 18:59N 40°43' W 074°03'11746564.8
2018-Jun-19 18:49N 29°44' W 093°53'11743166.8
2018-Jun-19 18:26N 40°43' W 074°03'117414939.0
2018-Jun-19 18:22N 29°44' W 093°53'0 0.0
2018-Jun-19 18:01N 29°44' W 093°53'117457131.2
2018-Jun-19 17:59N 40°43' W 074°03'0 0.0
2018-Jun-19 17:29N 40°43' W 074°03'117440651.1
2018-Jun-19 17:28N 29°44' W 093°53'11742492.8
2018-Jun-19 16:59N 40°43' W 074°03'117441858.5
2018-Jun-19 16:58N 29°44' W 093°53'11742488.4
2018-Jun-19 16:29N 40°43' W 074°03'117441858.7
2018-Jun-19 16:28N 29°44' W 093°53'11742489.8
2018-Jun-19 15:59N 40°43' W 074°03'11749150.9
2018-Jun-19 15:52N 29°44' W 093°53'11743155.0
2018-Jun-19 15:29N 40°43' W 074°03'117441448.3
2018-Jun-19 15:28N 29°44' W 093°53'11742491.3
2018-Jun-19 14:59N 40°43' W 074°03'117415045.3
2018-Jun-19 14:55N 29°44' W 093°53'0 0.0
2018-Jun-19 14:28N 29°44' W 093°53'117416386.5
2018-Jun-19 14:23N 40°43' W 074°03'0 0.0
2018-Jun-19 13:59N 40°43' W 074°03'11746544.4
2018-Jun-19 13:49N 29°44' W 093°53'0 0.0
2018-Jun-19 13:31N 29°44' W 093°53'117454905.3
2018-Jun-19 13:29N 40°43' W 074°03'0 0.0
2018-Jun-19 12:59N 40°43' W 074°03'117440651.2
2018-Jun-19 12:58N 29°44' W 093°53'11742494.2
2018-Jun-19 12:29N 40°43' W 074°03'117441046.0
2018-Jun-19 12:28N 29°44' W 093°53'11742486.9
2018-Jun-19 11:59N 40°43' W 074°03'117441448.4
2018-Jun-19 11:58N 29°44' W 093°53'0 0.0
2018-Jun-19 11:31N 29°44' W 093°53'117454201.4
2018-Jun-19 11:29N 40°43' W 074°03'11742455.1
2018-Jun-19 11:01N 29°44' W 093°53'117456369.5
2018-Jun-19 10:59N 40°43' W 074°03'11742450.8
2018-Jun-19 10:31N 29°44' W 093°53'117455627.8
2018-Jun-19 10:29N 40°43' W 074°03'0 0.0
2018-Jun-19 09:59N 40°43' W 074°03'117441448.3
2018-Jun-19 09:58N 29°44' W 093°53'11742489.8
2018-Jun-19 09:29N 40°43' W 074°03'117442277.1
2018-Jun-19 09:28N 29°44' W 093°53'11742488.4
2018-Jun-19 08:59N 40°43' W 074°03'117440651.2
2018-Jun-19 08:58N 29°44' W 093°53'0 0.0
2018-Jun-19 08:31N 29°44' W 093°53'117423357.6
2018-Jun-19 08:27N 40°43' W 074°03'0 0.0
2018-Jun-19 08:00N 40°43' W 074°03'117411875.6
2018-Jun-19 07:55N 29°44' W 093°53'11742927.8
2018-Jun-19 07:30N 40°43' W 074°03'117411875.6
2018-Jun-19 07:25N 29°44' W 093°53'0 0.0
2018-Jun-19 07:01N 29°44' W 093°53'11744227723.4
2018-Jun-19 07:01N 40°43' W 074°03'0 0.0
2018-Jun-19 06:31N 40°43' W 074°03'117423618.6
2018-Jun-19 06:28N 29°44' W 093°53'0 0.0
2018-Jun-19 05:58N 29°44' W 093°53'11742113861.7
2018-Jun-19 05:58N 40°43' W 074°03'11742611.3
2018-Jun-19 05:31N 29°44' W 093°53'11744227738.0
2018-Jun-19 05:31N 40°43' W 074°03'11742136.3
2018-Jun-19 04:58N 29°44' W 093°53'11744227724.1
2018-Jun-19 04:58N 40°43' W 074°03'11742352.7
2018-Jun-19 04:28N 29°44' W 093°53'11741409241.4
2018-Jun-19 04:28N 40°43' W 074°03'0 0.0
2018-Jun-19 03:58N 40°43' W 074°03'0 0.0
2018-Jun-19 03:27N 40°43' W 074°03'117411842.4
2018-Jun-19 03:22N 29°44' W 093°53'11743352.7
2018-Jun-19 03:01N 40°43' W 074°03'117411809.3
2018-Jun-19 02:55N 29°44' W 093°53'11742609.7
2018-Jun-19 02:28N 40°43' W 074°03'117411711.1
2018-Jun-19 02:22N 29°44' W 093°53'11743350.0
2018-Jun-19 02:01N 40°43' W 074°03'11747872.8
2018-Jun-19 01:52N 29°44' W 093°53'11743350.0
2018-Jun-19 01:31N 40°43' W 074°03'117423357.5
2018-Jun-19 01:28N 29°44' W 093°53'11742609.7
2018-Jun-19 01:01N 40°43' W 074°03'0 0.0
2018-Jun-19 00:31N 40°43' W 074°03'117423885.4
2018-Jun-19 00:28N 29°44' W 093°53'11742604.9
2018-Jun-19 00:01N 40°43' W 074°03'117423751.3
2018-Jun-18 23:58N 29°44' W 093°53'11742609.7
2018-Jun-18 23:31N 40°43' W 074°03'11743918.2
2018-Jun-18 23:13N 29°44' W 093°53'11745847.5
2018-Jun-18 23:01N 40°43' W 074°03'117423751.3
2018-Jun-18 22:58N 29°44' W 093°53'11742608.1
2018-Jun-18 22:31N 40°43' W 074°03'11744227723.4
2018-Jun-18 22:31N 29°44' W 093°53'11742347.4
2018-Jun-18 22:00N 40°43' W 074°03'117423751.3
2018-Jun-18 21:58N 29°44' W 093°53'11742348.7
2018-Jun-18 21:28N 40°43' W 074°03'117423618.6
2018-Jun-18 21:25N 29°44' W 093°53'0 0.0
2018-Jun-18 20:58N 29°44' W 093°53'11741056927.4
2018-Jun-18 20:58N 40°43' W 074°03'0 0.0
2018-Jun-18 20:31N 40°43' W 074°03'0 0.0
2018-Jun-18 20:01N 40°43' W 074°03'11747858.2
2018-Jun-18 19:52N 29°44' W 093°53'11743344.7
2018-Jun-18 19:30N 40°43' W 074°03'117423618.6
2018-Jun-18 19:28N 29°44' W 093°53'0 0.0
2018-Jun-18 19:01N 29°44' W 093°53'11744227724.1
2018-Jun-18 19:01N 40°43' W 074°03'0 0.0
2018-Jun-18 18:31N 40°43' W 074°03'117423487.4
2018-Jun-18 18:28N 29°44' W 093°53'11742608.1
2018-Jun-18 18:01N 40°43' W 074°03'117423618.5
2018-Jun-18 17:58N 29°44' W 093°53'11742609.7
2018-Jun-18 17:31N 40°43' W 074°03'117423618.5
2018-Jun-18 17:28N 29°44' W 093°53'0 0.0
2018-Jun-18 17:01N 29°44' W 093°53'11744227724.1
2018-Jun-18 17:01N 40°43' W 074°03'0 0.0
2018-Jun-18 16:28N 40°43' W 074°03'11744227724.1
2018-Jun-18 16:28N 29°44' W 093°53'11742606.5
2018-Jun-18 16:01N 40°43' W 074°03'117423618.5
2018-Jun-18 15:58N 29°44' W 093°53'11742350.0
2018-Jun-18 15:28N 40°43' W 074°03'0 0.0
2018-Jun-18 15:01N 40°43' W 074°03'117423618.5
2018-Jun-18 14:58N 29°44' W 093°53'11742606.5
2018-Jun-18 14:31N 40°43' W 074°03'0 0.0
2018-Jun-18 14:01N 40°43' W 074°03'11742938.0
2018-Jun-18 13:37N 29°44' W 093°53'117411711.1
2018-Jun-18 13:31N 40°43' W 074°03'117411842.3
2018-Jun-18 13:25N 29°44' W 093°53'11742608.1
2018-Jun-18 12:58N 40°43' W 074°03'117411678.8
2018-Jun-18 12:52N 29°44' W 093°53'11742933.9
2018-Jun-18 12:27N 40°43' W 074°03'117424021.1
2018-Jun-18 12:25N 29°44' W 093°53'11742929.8
2018-Jun-18 12:01N 40°43' W 074°03'117411743.6
2018-Jun-18 11:55N 29°44' W 093°53'11742352.7
2018-Jun-18 11:25N 40°43' W 074°03'11747829.1
2018-Jun-18 11:16N 29°44' W 093°53'11744681.8
2018-Jun-18 11:01N 40°43' W 074°03'11747843.6
2018-Jun-18 10:52N 29°44' W 093°53'11743355.3
2018-Jun-18 10:31N 40°43' W 074°03'117423751.3
2018-Jun-18 10:28N 29°44' W 093°53'11742604.9
2018-Jun-18 10:01N 40°43' W 074°03'117411842.3
2018-Jun-18 09:55N 29°44' W 093°53'0 0.0
2018-Jun-18 09:28N 29°44' W 093°53'11744227709.5
2018-Jun-18 09:28N 40°43' W 074°03'0 0.0
2018-Jun-18 09:01N 40°43' W 074°03'11742935.9
2018-Jun-18 08:37N 29°44' W 093°53'117411711.1
2018-Jun-18 08:31N 40°43' W 074°03'117423751.2
2018-Jun-18 08:28N 29°44' W 093°53'11742608.1
2018-Jun-18 08:01N 40°43' W 074°03'11745871.8
2018-Jun-18 07:49N 29°44' W 093°53'11743907.3
2018-Jun-18 07:30N 40°43' W 074°03'11744713.2
2018-Jun-18 07:16N 29°44' W 093°53'11743914.6
2018-Jun-18 06:58N 40°43' W 074°03'117423618.6
2018-Jun-18 06:55N 29°44' W 093°53'11742931.8
2018-Jun-18 06:31N 40°43' W 074°03'11744707.9
2018-Jun-18 06:16N 29°44' W 093°53'11744687.1
2018-Jun-18 06:01N 40°43' W 074°03'117423618.6
2018-Jun-18 05:58N 29°44' W 093°53'11742606.5
2018-Jun-18 05:31N 40°43' W 074°03'117423751.3
2018-Jun-18 05:28N 29°44' W 093°53'0 0.0
2018-Jun-18 05:01N 29°44' W 093°53'11742113854.8
2018-Jun-18 05:01N 40°43' W 074°03'0 0.0
2018-Jun-18 04:31N 40°43' W 074°03'117424021.2
2018-Jun-18 04:28N 29°44' W 093°53'11742606.5
2018-Jun-18 04:01N 40°43' W 074°03'117423357.6
2018-Jun-18 03:58N 29°44' W 093°53'11742488.4
2018-Jun-18 03:29N 40°43' W 074°03'117415045.2
2018-Jun-18 03:25N 29°44' W 093°53'11742786.9
2018-Jun-18 02:59N 40°43' W 074°03'0 0.0
2018-Jun-18 02:29N 40°43' W 074°03'11745162.0
2018-Jun-18 02:16N 29°44' W 093°53'0 0.0
2018-Jun-18 02:01N 29°44' W 093°53'117453515.3
2018-Jun-18 01:59N 40°43' W 074°03'11742459.4
2018-Jun-18 01:31N 29°44' W 093°53'117452846.4
2018-Jun-18 01:29N 40°43' W 074°03'0 0.0
2018-Jun-18 00:59N 40°43' W 074°03'117441858.5
2018-Jun-18 00:58N 29°44' W 093°53'11742488.4
2018-Jun-18 00:29N 40°43' W 074°03'117415262.5
2018-Jun-18 00:25N 29°44' W 093°53'11742777.7
2018-Jun-17 23:59N 40°43' W 074°03'117441858.7
2018-Jun-17 23:58N 29°44' W 093°53'0 0.0
2018-Jun-17 23:31N 29°44' W 093°53'117453515.3
2018-Jun-17 23:29N 40°43' W 074°03'11742455.1
2018-Jun-17 23:01N 29°44' W 093°53'117452846.5
2018-Jun-17 22:59N 40°43' W 074°03'0 0.0
2018-Jun-17 22:29N 40°43' W 074°03'11749170.7
2018-Jun-17 22:22N 29°44' W 093°53'0 0.0
2018-Jun-17 22:01N 29°44' W 093°53'117452193.9
2018-Jun-17 21:59N 40°43' W 074°03'0 0.0
2018-Jun-17 21:29N 40°43' W 074°03'11746605.8
2018-Jun-17 21:19N 29°44' W 093°53'11743647.7
2018-Jun-17 20:59N 40°43' W 074°03'117441858.5
2018-Jun-17 20:58N 29°44' W 093°53'11742486.9
2018-Jun-17 20:29N 40°43' W 074°03'117415153.1
2018-Jun-17 20:25N 29°44' W 093°53'0 0.0
2018-Jun-17 20:01N 29°44' W 093°53'117553538.2
2018-Jun-17 19:59N 40°42' W 074°02'11752457.6
2018-Jun-17 19:31N 29°44' W 093°53'1175264295.9
2018-Jun-17 19:30N 40°42' W 074°02'1 1.4
2018-Jun-17 19:00N 40°43' W 074°02'117526604.0
2018-Jun-17 18:58N 29°44' W 093°53'0 0.0
2018-Jun-17 18:31N 29°44' W 093°53'1175264314.4
2018-Jun-17 18:30N 40°42' W 074°02'1 1.9
2018-Jun-17 18:00N 40°43' W 074°02'117412435.7
2018-Jun-17 17:55N 29°44' W 093°53'11742686.0
2018-Jun-17 17:28N 40°43' W 074°03'117488077.3
2018-Jun-17 17:28N 29°44' W 093°53'0 0.0
2018-Jun-17 16:58N 29°44' W 093°53'117431550.3
2018-Jun-17 16:55N 40°43' W 074°03'11742843.1
2018-Jun-17 16:31N 29°44' W 093°53'117431316.5
2018-Jun-17 16:28N 40°43' W 074°03'11742537.6
2018-Jun-17 16:01N 29°44' W 093°53'117432272.7
2018-Jun-17 15:58N 40°43' W 074°03'11742287.7
2018-Jun-17 15:28N 29°44' W 093°53'117431787.5
2018-Jun-17 15:25N 40°43' W 074°03'0 0.0
2018-Jun-17 14:58N 40°43' W 074°03'117496084.6
2018-Jun-17 14:58N 29°44' W 093°53'11742410.3
2018-Jun-17 14:28N 40°43' W 074°03'117491907.0
2018-Jun-17 14:28N 29°44' W 093°53'11742407.6
2018-Jun-17 13:58N 40°43' W 074°03'117418958.4
2018-Jun-17 13:55N 29°44' W 093°53'0 0.0
2018-Jun-17 13:31N 29°44' W 093°53'117431550.1
2018-Jun-17 13:28N 40°43' W 074°03'0 0.0
2018-Jun-17 12:58N 40°43' W 074°03'117418706.7
2018-Jun-17 12:55N 29°44' W 093°53'0 0.0
2018-Jun-17 12:31N 29°44' W 093°53'117431550.1
2018-Jun-17 12:28N 40°43' W 074°03'0 0.0
2018-Jun-17 11:58N 40°43' W 074°03'117488077.6
2018-Jun-17 11:58N 29°44' W 093°53'1 1.1
2018-Jun-17 11:29N 29°44' W 093°53'117496047.4
2018-Jun-17 11:28N 40°43' W 074°03'11742495.2
2018-Jun-17 11:00N 29°43' W 093°52'117439503.1
2018-Jun-17 10:58N 40°43' W 074°03'0 0.0
2018-Jun-17 10:28N 40°43' W 074°03'0 0.0
2018-Jun-17 09:55N 40°43' W 074°03'0 0.0
2018-Jun-17 09:28N 40°43' W 074°03'0 0.0
2018-Jun-17 08:55N 40°43' W 074°03'0 0.0
2018-Jun-17 08:28N 40°43' W 074°03'0 0.0
2018-Jun-17 07:55N 40°43' W 074°03'0 0.0
2018-Jun-17 07:28N 40°43' W 074°03'0 0.0
2018-Jun-17 06:58N 40°43' W 074°03'0 0.0
2018-Jun-17 06:28N 40°43' W 074°03'0 0.0
2018-Jun-17 05:58N 40°43' W 074°03'0 0.0
2018-Jun-17 05:28N 40°43' W 074°03'0 0.0
2018-Jun-17 04:58N 40°43' W 074°03'0 0.0
2018-Jun-17 04:28N 40°43' W 074°03'0 0.0
2018-Jun-17 03:58N 40°43' W 074°03'0 0.0
2018-Jun-17 03:28N 40°43' W 074°03'0 0.0
2018-Jun-17 02:58N 40°43' W 074°03'0 0.0
2018-Jun-17 02:28N 40°43' W 074°03'0 0.0
2018-Jun-17 01:58N 40°43' W 074°03'0 0.0
2018-Jun-17 01:25N 40°43' W 074°03'0 0.0
2018-Jun-17 00:58N 40°43' W 074°03'0 0.0
2018-Jun-17 00:28N 40°43' W 074°03'0 0.0
2018-Jun-16 23:58N 40°43' W 074°03'0 0.0
2018-Jun-16 23:28N 40°43' W 074°03'0 0.0
2018-Jun-16 22:58N 40°43' W 074°03'0 0.1
2018-Jun-16 22:30N 40°43' W 074°03'2 4.1
2018-Jun-16 22:00N 40°41' W 074°01'2 4.5
2018-Jun-16 21:30N 40°39' W 074°02'1 1.6
2018-Jun-16 21:00N 40°39' W 074°03'1 2.7
2018-Jun-16 20:30N 40°40' W 074°03'2 3.5
2018-Jun-16 20:00N 40°42' W 074°02'1 2.0
2018-Jun-16 19:28N 40°43' W 074°03'0 0.0
2018-Jun-16 18:58N 40°43' W 074°03'0 0.0
2018-Jun-16 18:28N 40°43' W 074°03'0 0.0
2018-Jun-16 17:58N 40°43' W 074°03'0 0.0
2018-Jun-16 17:28N 40°43' W 074°03'0 0.0
2018-Jun-16 16:58N 40°43' W 074°03'0 0.0
2018-Jun-16 16:28N 40°43' W 074°03'0 0.0
2018-Jun-16 15:58N 40°43' W 074°03'0 0.0
2018-Jun-16 15:28N 40°43' W 074°03'0 0.0
2018-Jun-16 14:58N 40°43' W 074°03'0 0.0
2018-Jun-16 14:28N 40°43' W 074°03'0 0.0
2018-Jun-16 13:58N 40°43' W 074°03'0 0.0
2018-Jun-16 13:28N 40°43' W 074°03'0 0.0
2018-Jun-16 12:58N 40°43' W 074°03'0 0.0
2018-Jun-16 12:28N 40°43' W 074°03'0 0.0
2018-Jun-16 11:55N 40°43' W 074°03'0 0.0
2018-Jun-16 11:28N 40°43' W 074°03'0 0.0
2018-Jun-16 10:55N 40°43' W 074°03'0 0.0
2018-Jun-16 10:28N 40°43' W 074°03'0 0.0
2018-Jun-16 09:58N 40°43' W 074°03'0 0.0
2018-Jun-16 09:25N 40°43' W 074°03'0 0.0
2018-Jun-16 08:58N 40°43' W 074°03'0 0.0
2018-Jun-16 08:28N 40°43' W 074°03'0 0.0
2018-Jun-16 07:58N 40°43' W 074°03'0 0.0
2018-Jun-16 07:28N 40°43' W 074°03'0 0.0
2018-Jun-16 06:58N 40°43' W 074°03'0 0.0
2018-Jun-16 06:28N 40°43' W 074°03'0 0.0
2018-Jun-16 05:58N 40°43' W 074°03'0 0.0
2018-Jun-16 05:28N 40°43' W 074°03'0 0.0
2018-Jun-16 04:58N 40°43' W 074°03'0 0.0
2018-Jun-16 04:28N 40°43' W 074°03'0 0.0
2018-Jun-16 03:58N 40°43' W 074°03'0 0.0
2018-Jun-16 03:28N 40°43' W 074°03'0 0.0
2018-Jun-16 02:58N 40°43' W 074°03'0 0.0
2018-Jun-16 02:28N 40°43' W 074°03'0 0.0
2018-Jun-16 01:58N 40°43' W 074°03'0 0.0
2018-Jun-16 01:28N 40°43' W 074°03'0 0.0
2018-Jun-16 00:58N 40°43' W 074°03'0 0.0
2018-Jun-16 00:28N 40°43' W 074°03'0 0.0
2018-Jun-15 23:58N 40°43' W 074°03'0 0.0
2018-Jun-15 23:28N 40°43' W 074°03'0 0.0
2018-Jun-15 22:55N 40°43' W 074°03'0 0.0
2018-Jun-15 22:28N 40°43' W 074°03'0 0.0
2018-Jun-15 21:58N 40°43' W 074°03'0 0.0
2018-Jun-15 21:28N 40°43' W 074°03'0 0.0
2018-Jun-15 20:58N 40°43' W 074°03'0 0.0
2018-Jun-15 20:28N 40°43' W 074°03'0 0.0
2018-Jun-15 19:49N 40°43' W 074°03'0 0.0
2018-Jun-15 19:28N 40°43' W 074°03'0 0.0
2018-Jun-15 18:58N 40°43' W 074°03'0 0.0
2018-Jun-15 18:28N 40°43' W 074°03'0 0.0
2018-Jun-15 17:49N 40°43' W 074°03'0 0.0
2018-Jun-15 17:28N 40°43' W 074°03'0 0.0
2018-Jun-15 16:58N 40°43' W 074°03'0 0.0
2018-Jun-15 16:28N 40°43' W 074°03'0 0.0
2018-Jun-15 15:58N 40°43' W 074°03'0 0.0
2018-Jun-15 15:28N 40°43' W 074°03'0 0.0
2018-Jun-15 14:58N 40°43' W 074°03'0 0.0
2018-Jun-15 14:28N 40°43' W 074°03'0 0.0
2018-Jun-15 13:58N 40°43' W 074°03'0 0.0
2018-Jun-15 13:28N 40°43' W 074°03'0 0.0
2018-Jun-15 12:58N 40°43' W 074°03'0 0.0
2018-Jun-15 12:28N 40°43' W 074°03'0 0.0
2018-Jun-15 11:58N 40°43' W 074°03'0 0.0
2018-Jun-15 11:28N 40°43' W 074°03'0 0.0
2018-Jun-15 10:58N 40°43' W 074°03'0 0.0
2018-Jun-15 10:28N 40°43' W 074°03'0 0.0
2018-Jun-15 09:58N 40°43' W 074°03'0 0.0
2018-Jun-15 09:25N 40°43' W 074°03'0 0.0
2018-Jun-15 08:58N 40°43' W 074°03'0 0.0
2018-Jun-15 08:28N 40°43' W 074°03'0 0.0
2018-Jun-15 07:58N 40°43' W 074°03'0 0.0
2018-Jun-15 07:28N 40°43' W 074°03'0 0.0
2018-Jun-15 06:58N 40°43' W 074°03'0 0.0
2018-Jun-15 06:25N 40°43' W 074°03'0 0.0
2018-Jun-15 05:58N 40°43' W 074°03'0 0.0
2018-Jun-15 05:28N 40°43' W 074°03'0 0.0
2018-Jun-15 04:58N 40°43' W 074°03'0 0.0
2018-Jun-15 04:28N 40°43' W 074°03'0 0.0
2018-Jun-15 03:58N 40°43' W 074°03'0 0.0
2018-Jun-15 03:28N 40°43' W 074°03'0 0.0
2018-Jun-15 02:55N 40°43' W 074°03'0 0.0
2018-Jun-15 02:28N 40°43' W 074°03'0 0.0
2018-Jun-15 01:58N 40°43' W 074°03'0 0.0
2018-Jun-15 01:28N 40°43' W 074°03'0 0.0
2018-Jun-15 00:58N 40°43' W 074°03'0 0.0
2018-Jun-15 00:29N 40°43' W 074°03'0 0.0
2018-Jun-14 23:56N 40°43' W 074°03'0 0.0
2018-Jun-14 23:29N 40°43' W 074°03'0 0.0
2018-Jun-14 22:59N 40°43' W 074°03'0 0.0
2018-Jun-14 22:31N 40°43' W 074°03'0 0.0
2018-Jun-14 22:01N 40°43' W 074°03'0 0.0
2018-Jun-14 21:28N 40°43' W 074°03'0 0.0
2018-Jun-14 21:01N 40°43' W 074°03'0 0.0
2018-Jun-14 20:31N 40°43' W 074°03'0 0.0
2018-Jun-14 20:01N 40°43' W 074°03'0 0.0
2018-Jun-14 19:31N 40°43' W 074°03'0 0.0
2018-Jun-14 18:58N 40°43' W 074°03'0 0.0
2018-Jun-14 18:22N 40°43' W 074°03'0 0.0
2018-Jun-14 18:01N 40°43' W 074°03'0 0.0
2018-Jun-14 17:28N 40°43' W 074°03'0 0.0
2018-Jun-14 17:01N 40°43' W 074°03'0 0.0
2018-Jun-14 16:28N 40°43' W 074°03'0 0.0
2018-Jun-14 16:01N 40°43' W 074°03'0 0.0
2018-Jun-14 15:31N 40°43' W 074°03'0 0.0
2018-Jun-14 15:01N 40°43' W 074°03'0 0.0
2018-Jun-14 14:28N 40°43' W 074°03'0 0.0
2018-Jun-14 14:01N 40°43' W 074°03'0 0.0
2018-Jun-14 13:31N 40°43' W 074°03'0 0.0
2018-Jun-14 13:01N 40°43' W 074°03'0 0.0
2018-Jun-14 12:31N 40°43' W 074°03'0 0.0
2018-Jun-14 11:58N 40°43' W 074°03'0 0.0
2018-Jun-14 11:28N 40°43' W 074°03'0 0.0
2018-Jun-14 11:01N 40°43' W 074°03'0 0.0
2018-Jun-14 10:27N 40°43' W 074°03'0 0.0
2018-Jun-14 10:01N 40°43' W 074°03'0 0.0
2018-Jun-14 09:28N 40°43' W 074°03'0 0.0
2018-Jun-14 08:58N 40°43' W 074°03'0 0.0
2018-Jun-14 08:28N 40°43' W 074°03'0 0.0
2018-Jun-14 08:01N 40°43' W 074°03'0 0.0
2018-Jun-14 07:31N 40°43' W 074°03'0 0.0
2018-Jun-14 07:01N 40°43' W 074°03'0 0.0
2018-Jun-14 06:31N 40°43' W 074°03'0 0.0
2018-Jun-14 06:01N 40°43' W 074°03'0 0.0
2018-Jun-14 05:28N 40°43' W 074°03'0 0.0
2018-Jun-14 04:58N 40°43' W 074°03'0 0.0
2018-Jun-14 04:31N 40°43' W 074°03'0 0.0
2018-Jun-14 04:01N 40°43' W 074°03'0 0.0
2018-Jun-14 03:31N 40°43' W 074°03'0 0.0
2018-Jun-14 03:01N 40°43' W 074°03'0 0.0
2018-Jun-14 02:31N 40°43' W 074°03'0 0.0
2018-Jun-14 02:01N 40°43' W 074°03'0 0.0
2018-Jun-14 01:31N 40°43' W 074°03'0 0.0
2018-Jun-14 01:01N 40°43' W 074°03'0 0.0
2018-Jun-14 00:28N 40°43' W 074°03'0 0.0
2018-Jun-14 00:01N 40°43' W 074°03'0 0.0
2018-Jun-13 23:28N 40°43' W 074°03'0 0.0
2018-Jun-13 23:01N 40°43' W 074°03'0 0.0
2018-Jun-13 22:31N 40°43' W 074°03'0 0.0
2018-Jun-13 21:58N 40°43' W 074°03'  
Track history (hours):
 
Tides and Currents Weather Stations Pressure Air Temp Water Temp Dewpoint Dewpoint Depression Visibility Wind Speed Wind Dir Waves Ship Positions

Thien Thanh

Owner: tran, trang h, ROSHARON, TX. More information available from US FCC via Universal Licensing System and Coast Guard Vessel Documentation Center.

Last reported at 2018-Jun-23 21:29 UTC. Time now 2018-Jun-23 21:44 UTC.
Position N 40°43' W 074°03'.

Length 16 m; draft 7.7 m.

Type: Pleasure craft. MMSI: 367616050.

Date/timePositionNaut miles runAvg speedWind from/ knotsBaromVisibWave heightAir tempDewpointWater temp
2018-Jun-23 21:29N 40°43' W 074°03'117411776.2
2018-Jun-23 21:24N 29°44' W 093°53'11742935.9
2018-Jun-23 21:00N 40°43' W 074°03'11741409220.2
2018-Jun-23 20:59N 29°44' W 093°53'11752393.3
2018-Jun-23 20:30N 40°43' W 074°02'1175128151.6
2018-Jun-23 20:29N 29°44' W 093°53'11732432.6
2018-Jun-23 20:01N 40°40' W 074°03'117367031.5
2018-Jun-23 19:59N 29°44' W 093°53'11732430.5
2018-Jun-23 19:31N 40°41' W 074°03'117310010.1
2018-Jun-23 19:23N 29°44' W 093°53'11733000.9
2018-Jun-23 19:00N 40°40' W 074°03'1173127946.6
2018-Jun-23 18:59N 29°44' W 093°53'11742392.0
2018-Jun-23 18:30N 40°41' W 074°02'1174124315.6
2018-Jun-23 18:29N 29°44' W 093°53'11732391.9
2018-Jun-23 18:00N 40°40' W 074°02'1173132001.6
2018-Jun-23 17:59N 29°44' W 093°53'11732387.7
2018-Jun-23 17:30N 40°40' W 074°03'11737367.2
2018-Jun-23 17:20N 29°44' W 093°53'11733526.7
2018-Jun-23 17:01N 40°40' W 074°03'117367008.1
2018-Jun-23 16:59N 29°44' W 093°53'11732354.8
2018-Jun-23 16:30N 40°39' W 074°02'1173527771.4
2018-Jun-23 16:29N 29°44' W 093°53'11742394.0
2018-Jun-23 16:00N 40°41' W 074°02'117419744.6
2018-Jun-23 15:56N 29°44' W 093°53'11742675.8
2018-Jun-23 15:30N 40°43' W 074°03'1174105693.1
2018-Jun-23 15:29N 29°44' W 093°53'11742325.5
2018-Jun-23 14:59N 40°43' W 074°03'117425936.6
2018-Jun-23 14:56N 29°44' W 093°53'0 0.0
2018-Jun-23 14:30N 29°44' W 093°53'1174222507.7
2018-Jun-23 14:29N 40°43' W 074°03'11742372.4
2018-Jun-23 13:59N 29°44' W 093°53'1174222508.5
2018-Jun-23 13:59N 40°43' W 074°03'11742372.4
2018-Jun-23 13:29N 29°44' W 093°53'1174264228.8
2018-Jun-23 13:29N 40°43' W 074°03'11742368.4
2018-Jun-23 12:59N 29°44' W 093°53'1174264228.8
2018-Jun-23 12:59N 40°43' W 074°03'11742372.4
2018-Jun-23 12:29N 29°44' W 093°53'1174234869.2
2018-Jun-23 12:29N 40°43' W 074°03'11742372.4
2018-Jun-23 11:59N 29°44' W 093°53'1174248685.1
2018-Jun-23 11:59N 40°43' W 074°03'11742371.1
2018-Jun-23 11:29N 29°44' W 093°53'1174222507.7
2018-Jun-23 11:29N 40°43' W 074°03'11742371.1
2018-Jun-23 10:59N 29°44' W 093°53'117421460.1
2018-Jun-23 10:56N 40°43' W 074°03'11742639.0
2018-Jun-23 10:29N 29°44' W 093°53'1174248685.1
2018-Jun-23 10:29N 40°43' W 074°03'0 0.0
2018-Jun-23 09:59N 40°43' W 074°03'117426258.7
2018-Jun-23 09:56N 29°44' W 093°53'0 0.0
2018-Jun-23 09:29N 29°44' W 093°53'1174248685.1
2018-Jun-23 09:29N 40°43' W 074°03'11742372.4
2018-Jun-23 08:59N 29°44' W 093°53'1174222508.5
2018-Jun-23 08:59N 40°43' W 074°03'11742369.8
2018-Jun-23 08:29N 29°44' W 093°53'1174281844.0
2018-Jun-23 08:29N 40°43' W 074°03'11742369.8
2018-Jun-23 07:59N 29°44' W 093°53'1174248685.9
2018-Jun-23 07:59N 40°43' W 074°03'11742372.4
2018-Jun-23 07:29N 29°44' W 093°53'1174234870.0
2018-Jun-23 07:29N 40°43' W 074°03'11742373.8
2018-Jun-23 06:59N 29°44' W 093°53'1174222508.5
2018-Jun-23 06:59N 40°43' W 074°03'11742371.1
2018-Jun-23 06:29N 29°44' W 093°53'1174248685.9
2018-Jun-23 06:29N 40°43' W 074°03'11742375.1
2018-Jun-23 06:00N 29°44' W 093°53'1174211383.0
2018-Jun-23 05:59N 40°43' W 074°03'11742373.8
2018-Jun-23 05:29N 29°44' W 093°53'1174264228.8
2018-Jun-23 05:29N 40°43' W 074°03'11742367.1
2018-Jun-23 04:59N 29°44' W 093°53'1174248685.1
2018-Jun-23 04:59N 40°43' W 074°03'11742371.1
2018-Jun-23 04:29N 29°44' W 093°53'1174281844.0
2018-Jun-23 04:29N 40°43' W 074°03'0 0.0
2018-Jun-23 03:59N 40°43' W 074°03'117425622.1
2018-Jun-23 03:56N 29°44' W 093°53'0 0.0
2018-Jun-23 03:26N 29°44' W 093°53'1174281843.1
2018-Jun-23 03:26N 40°43' W 074°03'11742632.4
2018-Jun-23 02:59N 29°44' W 093°53'1174301974.7
2018-Jun-23 02:59N 40°43' W 074°03'0 0.0
2018-Jun-23 02:29N 40°43' W 074°03'117412254.0
2018-Jun-23 02:23N 29°44' W 093°53'11742903.6
2018-Jun-23 01:59N 40°43' W 074°03'117412289.7
2018-Jun-23 01:53N 29°44' W 093°53'11742905.6
2018-Jun-23 01:29N 40°43' W 074°03'117412254.0
2018-Jun-23 01:23N 29°44' W 093°53'0 0.0
2018-Jun-23 00:59N 29°44' W 093°53'1174222507.7
2018-Jun-23 00:59N 40°43' W 074°03'11742373.7
2018-Jun-23 00:29N 29°44' W 093°53'1174234869.2
2018-Jun-23 00:29N 40°43' W 074°03'0 0.0
2018-Jun-22 23:59N 40°43' W 074°03'11748068.1
2018-Jun-22 23:50N 29°44' W 093°53'0 0.0
2018-Jun-22 23:30N 29°44' W 093°53'117454904.7
2018-Jun-22 23:29N 40°43' W 074°03'1 1.3
2018-Jun-22 23:00N 40°43' W 074°02'1175302142.8
2018-Jun-22 22:59N 29°44' W 093°53'11752414.1
2018-Jun-22 22:30N 40°42' W 074°01'117591944.4
2018-Jun-22 22:29N 29°44' W 093°53'11752365.6
2018-Jun-22 22:00N 40°42' W 074°02'1175302125.0
2018-Jun-22 21:59N 29°44' W 093°53'11742296.4
2018-Jun-22 21:29N 40°43' W 074°03'117430414.7
2018-Jun-22 21:26N 29°44' W 093°53'0 0.0
2018-Jun-22 20:59N 29°44' W 093°53'117498317.4
2018-Jun-22 20:59N 40°43' W 074°03'11742406.2
2018-Jun-22 20:29N 29°44' W 093°53'117498317.4
2018-Jun-22 20:29N 40°43' W 074°03'11742407.5
2018-Jun-22 19:59N 29°44' W 093°53'117496083.2
2018-Jun-22 19:59N 40°43' W 074°03'0 0.0
2018-Jun-22 19:29N 40°43' W 074°03'0 0.0
2018-Jun-22 18:59N 40°43' W 074°03'0 0.0
2018-Jun-22 18:29N 40°43' W 074°03'1 1.5
2018-Jun-22 18:00N 40°42' W 074°02'3 5.3
2018-Jun-22 17:29N 40°40' W 074°02'1 1.3
2018-Jun-22 16:58N 40°39' W 074°02'2 3.2
2018-Jun-22 16:30N 40°41' W 074°02'2 4.2
2018-Jun-22 15:59N 40°43' W 074°03'0 0.0
2018-Jun-22 15:29N 40°43' W 074°03'0 0.0
2018-Jun-22 14:59N 40°43' W 074°03'0 0.0
2018-Jun-22 14:29N 40°43' W 074°03'0 0.0
2018-Jun-22 13:59N 40°43' W 074°03'0 0.0
2018-Jun-22 13:29N 40°43' W 074°03'0 0.0
2018-Jun-22 12:59N 40°43' W 074°03'0 0.0
2018-Jun-22 12:29N 40°43' W 074°03'0 0.0
2018-Jun-22 11:59N 40°43' W 074°03'0 0.0
2018-Jun-22 11:29N 40°43' W 074°03'0 0.0
2018-Jun-22 10:59N 40°43' W 074°03'0 0.0
2018-Jun-22 10:27N 40°43' W 074°03'0 0.0
2018-Jun-22 10:00N 40°43' W 074°03'0 0.0
2018-Jun-22 09:30N 40°43' W 074°03'0 0.0
2018-Jun-22 08:59N 40°43' W 074°03'0 0.0
2018-Jun-22 08:29N 40°43' W 074°03'0 0.0
2018-Jun-22 07:59N 40°43' W 074°03'0 0.0
2018-Jun-22 07:29N 40°43' W 074°03'0 0.0
2018-Jun-22 06:59N 40°43' W 074°03'0 0.0
2018-Jun-22 06:29N 40°43' W 074°03'0 0.0
2018-Jun-22 05:59N 40°43' W 074°03'0 0.0
2018-Jun-22 05:29N 40°43' W 074°03'0 0.0
2018-Jun-22 05:00N 40°43' W 074°03'0 0.0
2018-Jun-22 04:30N 40°43' W 074°03'0 0.0
2018-Jun-22 04:00N 40°43' W 074°03'0 0.0
2018-Jun-22 03:30N 40°43' W 074°03'0 0.0
2018-Jun-22 03:00N 40°43' W 074°03'0 0.0
2018-Jun-22 02:30N 40°43' W 074°03'0 0.0
2018-Jun-22 02:00N 40°43' W 074°03'0 0.0
2018-Jun-22 01:30N 40°43' W 074°03'0 0.0
2018-Jun-22 01:00N 40°43' W 074°03'0 0.0
2018-Jun-22 00:30N 40°43' W 074°03'0 0.0
2018-Jun-22 00:00N 40°43' W 074°03'0 0.0
2018-Jun-21 23:30N 40°43' W 074°03'0 0.0
2018-Jun-21 23:00N 40°43' W 074°03'0 0.0
2018-Jun-21 22:30N 40°43' W 074°03'0 0.0
2018-Jun-21 22:00N 40°43' W 074°03'0 0.0
2018-Jun-21 21:30N 40°43' W 074°03'0 0.0
2018-Jun-21 21:00N 40°43' W 074°03'0 0.0
2018-Jun-21 20:30N 40°43' W 074°03'117414092.2
2018-Jun-21 20:25N 29°44' W 093°53'11742814.7
2018-Jun-21 20:00N 40°43' W 074°03'117435526.4
2018-Jun-21 19:58N 29°44' W 093°53'11742518.0
2018-Jun-21 19:30N 40°43' W 074°03'11748807.6
2018-Jun-21 19:22N 29°44' W 093°53'11743207.6
2018-Jun-21 19:00N 40°43' W 074°03'117434371.1
2018-Jun-21 18:58N 29°44' W 093°53'11742515.0
2018-Jun-21 18:30N 40°43' W 074°03'11748826.0
2018-Jun-21 18:22N 29°44' W 093°53'11743202.8
2018-Jun-21 18:00N 40°43' W 074°03'117435230.5
2018-Jun-21 17:58N 29°44' W 093°53'0 0.0
2018-Jun-21 17:28N 29°44' W 093°53'117472890.4
2018-Jun-21 17:27N 40°43' W 074°03'0 0.0
2018-Jun-21 17:00N 40°43' W 074°03'117436133.9
2018-Jun-21 16:58N 29°44' W 093°53'11742512.0
2018-Jun-21 16:30N 40°43' W 074°03'117435526.4
2018-Jun-21 16:28N 29°44' W 093°53'11742515.0
2018-Jun-21 16:00N 40°43' W 074°03'11748826.0
2018-Jun-21 15:52N 29°44' W 093°53'11743200.3
2018-Jun-21 15:30N 40°43' W 074°03'117414186.8
2018-Jun-21 15:25N 29°44' W 093°53'11742814.7
2018-Jun-21 15:00N 40°43' W 074°03'117435526.6
2018-Jun-21 14:58N 29°44' W 093°53'11742515.0
2018-Jun-21 14:30N 40°43' W 074°03'117436133.7
2018-Jun-21 14:28N 29°44' W 093°53'11742516.5
2018-Jun-21 14:00N 40°43' W 074°03'117434939.3
2018-Jun-21 13:58N 29°44' W 093°53'11742515.0
2018-Jun-21 13:30N 40°43' W 074°03'117435828.1
2018-Jun-21 13:28N 29°44' W 093°53'11742512.0
2018-Jun-21 13:00N 40°43' W 074°03'11745033.0
2018-Jun-21 12:46N 29°44' W 093°53'11744408.5
2018-Jun-21 12:30N 40°43' W 074°03'117435230.9
2018-Jun-21 12:28N 29°44' W 093°53'11742519.5
2018-Jun-21 12:00N 40°43' W 074°03'117435230.9
2018-Jun-21 11:58N 29°44' W 093°53'11742456.5
2018-Jun-21 11:29N 40°43' W 074°03'117452846.5
2018-Jun-21 11:28N 29°44' W 093°53'11742225.1
2018-Jun-21 10:56N 40°43' W 074°03'11744314.0
2018-Jun-21 10:40N 29°44' W 093°53'11746616.1
2018-Jun-21 10:29N 40°43' W 074°03'117452846.3
2018-Jun-21 10:28N 29°44' W 093°53'11742459.4
2018-Jun-21 09:59N 40°43' W 074°03'117451557.4
2018-Jun-21 09:58N 29°44' W 093°53'11742458.0
2018-Jun-21 09:29N 40°43' W 074°03'117454905.3
2018-Jun-21 09:28N 29°44' W 093°53'11742453.7
2018-Jun-21 08:59N 40°43' W 074°03'11749630.3
2018-Jun-21 08:52N 29°44' W 093°53'11743110.9
2018-Jun-21 08:29N 40°43' W 074°03'117451557.6
2018-Jun-21 08:28N 29°44' W 093°53'11742459.4
2018-Jun-21 07:59N 40°43' W 074°03'117451557.4
2018-Jun-21 07:58N 29°44' W 093°53'11742460.8
2018-Jun-21 07:29N 40°43' W 074°03'11743641.4
2018-Jun-21 07:10N 29°44' W 093°53'11746605.8
2018-Jun-21 06:59N 40°43' W 074°03'117452846.3
2018-Jun-21 06:58N 29°44' W 093°53'11742458.0
2018-Jun-21 06:29N 40°43' W 074°03'117451557.4
2018-Jun-21 06:28N 29°44' W 093°53'11742465.1
2018-Jun-21 05:59N 40°43' W 074°03'117452194.1
2018-Jun-21 05:58N 29°44' W 093°53'11742456.5
2018-Jun-21 05:29N 40°43' W 074°03'11743157.4
2018-Jun-21 05:07N 29°44' W 093°53'11749190.7
2018-Jun-21 04:59N 40°43' W 074°03'11745278.1
2018-Jun-21 04:46N 29°44' W 093°53'11744236.2
2018-Jun-21 04:29N 40°43' W 074°03'11749543.4
2018-Jun-21 04:22N 29°44' W 093°53'11743122.4
2018-Jun-21 03:59N 40°43' W 074°03'117448594.3
2018-Jun-21 03:58N 29°44' W 093°53'11742459.4
2018-Jun-21 03:29N 40°43' W 074°03'117416323.2
2018-Jun-21 03:25N 29°44' W 093°53'11742745.3
2018-Jun-21 02:59N 40°43' W 074°03'11749565.0
2018-Jun-21 02:52N 29°44' W 093°53'11743122.4
2018-Jun-21 02:29N 40°43' W 074°03'117450330.0
2018-Jun-21 02:28N 29°44' W 093°53'11742459.4
2018-Jun-21 01:59N 40°43' W 074°03'11749521.9
2018-Jun-21 01:52N 29°44' W 093°53'11743124.7
2018-Jun-21 01:29N 40°43' W 074°03'117449737.7
2018-Jun-21 01:28N 29°44' W 093°53'11742227.5
2018-Jun-21 00:56N 40°43' W 074°03'11746807.9
2018-Jun-21 00:46N 29°44' W 093°53'11744236.2
2018-Jun-21 00:29N 40°43' W 074°03'0 0.0
2018-Jun-20 23:59N 40°43' W 074°03'11743638.3
2018-Jun-20 23:40N 29°44' W 093°53'11757305.0
2018-Jun-20 23:30N 40°43' W 074°02'117513135.4
2018-Jun-20 23:25N 29°44' W 093°53'11752861.3
2018-Jun-20 23:00N 40°42' W 074°02'117529992.5
2018-Jun-20 22:58N 29°44' W 093°53'11752552.8
2018-Jun-20 22:30N 40°43' W 074°02'117529579.9
2018-Jun-20 22:28N 29°44' W 093°53'11752551.3
2018-Jun-20 22:00N 40°43' W 074°02'117530000.2
2018-Jun-20 21:58N 29°44' W 093°53'11742417.2
2018-Jun-20 21:29N 40°43' W 074°03'117410211.8
2018-Jun-20 21:22N 29°44' W 093°53'11743052.5
2018-Jun-20 20:59N 40°43' W 074°03'117479767.8
2018-Jun-20 20:58N 29°44' W 093°53'11742425.5
2018-Jun-20 20:29N 40°43' W 074°03'117475495.0
2018-Jun-20 20:28N 29°44' W 093°53'11742420.0
2018-Jun-20 19:59N 40°43' W 074°03'117476866.8
2018-Jun-20 19:58N 29°44' W 093°53'11742425.5
2018-Jun-20 19:29N 40°43' W 074°03'117472891.2
2018-Jun-20 19:28N 29°44' W 093°53'0 0.0
2018-Jun-20 18:58N 29°44' W 093°53'1174176153.3
2018-Jun-20 18:58N 40°43' W 074°03'11742385.8
2018-Jun-20 18:28N 29°44' W 093°53'1174162603.6
2018-Jun-20 18:28N 40°43' W 074°03'11742381.8
2018-Jun-20 17:58N 29°44' W 093°53'1174162603.0
2018-Jun-20 17:58N 40°43' W 074°03'11742380.4
2018-Jun-20 17:28N 29°44' W 093°53'1174176153.7
2018-Jun-20 17:28N 40°43' W 074°03'11742379.1
2018-Jun-20 16:58N 29°44' W 093°53'117421033.3
2018-Jun-20 16:55N 40°43' W 074°03'11742645.6
2018-Jun-20 16:28N 29°44' W 093°53'117420622.9
2018-Jun-20 16:25N 40°43' W 074°03'11742650.6
2018-Jun-20 15:58N 29°44' W 093°53'1174169108.3
2018-Jun-20 15:58N 40°43' W 074°03'11742495.4
2018-Jun-20 15:30N 29°44' W 093°53'117440259.9
2018-Jun-20 15:28N 40°43' W 074°03'0 0.0
2018-Jun-20 14:58N 40°43' W 074°03'1174234873.6
2018-Jun-20 14:58N 29°44' W 093°53'11742373.8
2018-Jun-20 14:28N 40°43' W 074°03'1174201320.9
2018-Jun-20 14:28N 29°44' W 093°53'11742377.8
2018-Jun-20 13:58N 40°43' W 074°03'117411038.4
2018-Jun-20 13:52N 29°44' W 093°53'11742983.6
2018-Jun-20 13:28N 40°43' W 074°03'117411096.4
2018-Jun-20 13:22N 29°44' W 093°53'11742977.3
2018-Jun-20 12:58N 40°43' W 074°03'117411154.9
2018-Jun-20 12:52N 29°44' W 093°53'11742975.2
2018-Jun-20 12:28N 40°43' W 074°03'1174201319.5
2018-Jun-20 12:28N 29°44' W 093°53'11742376.5
2018-Jun-20 11:58N 40°43' W 074°03'1174222511.0
2018-Jun-20 11:58N 29°44' W 093°53'0 0.0
2018-Jun-20 11:31N 29°44' W 093°53'117426928.1
2018-Jun-20 11:28N 40°43' W 074°03'0 0.0
2018-Jun-20 10:58N 40°43' W 074°03'0 0.0
2018-Jun-20 10:28N 40°43' W 074°03'1174192168.6
2018-Jun-20 10:28N 29°44' W 093°53'0 0.0
2018-Jun-20 10:01N 29°44' W 093°53'117426589.4
2018-Jun-20 09:58N 40°43' W 074°03'0 0.0
2018-Jun-20 09:25N 40°43' W 074°03'11744590.3
2018-Jun-20 09:10N 29°44' W 093°53'11746056.9
2018-Jun-20 08:58N 40°43' W 074°03'1174222511.0
2018-Jun-20 08:58N 29°44' W 093°53'0 0.0
2018-Jun-20 08:31N 29°44' W 093°53'117426589.4
2018-Jun-20 08:28N 40°43' W 074°03'11742574.7
2018-Jun-20 08:01N 29°44' W 093°53'117426928.1
2018-Jun-20 07:58N 40°43' W 074°03'0 0.0
2018-Jun-20 07:28N 40°43' W 074°03'1174192168.6
2018-Jun-20 07:28N 29°44' W 093°53'11742377.8
2018-Jun-20 06:58N 40°43' W 074°03'1174183814.1
2018-Jun-20 06:58N 29°44' W 093°53'11742377.8
2018-Jun-20 06:28N 40°43' W 074°03'117421244.8
2018-Jun-20 06:25N 29°44' W 093°53'11742642.3
2018-Jun-20 05:58N 40°43' W 074°03'117421033.4
2018-Jun-20 05:55N 29°44' W 093°53'11742647.3
2018-Jun-20 05:28N 40°43' W 074°03'1174176154.6
2018-Jun-20 05:28N 29°44' W 093°53'11742376.5
2018-Jun-20 04:58N 40°43' W 074°03'11744605.4
2018-Jun-20 04:43N 29°44' W 093°53'0 0.0
2018-Jun-20 04:28N 29°44' W 093°53'117426757.7
2018-Jun-20 04:25N 40°43' W 074°03'0 0.0
2018-Jun-20 03:58N 40°43' W 074°03'1174211385.5
2018-Jun-20 03:58N 29°44' W 093°53'11742375.1
2018-Jun-20 03:28N 40°43' W 074°03'117421138.5
2018-Jun-20 03:25N 29°44' W 093°53'11742642.3
2018-Jun-20 02:58N 40°43' W 074°03'0 0.0
2018-Jun-20 02:28N 40°43' W 074°03'117411154.9
2018-Jun-20 02:22N 29°44' W 093°53'11742975.2
2018-Jun-20 01:58N 40°43' W 074°03'1174211385.5
2018-Jun-20 01:58N 29°44' W 093°53'11742376.5
2018-Jun-20 01:28N 40°43' W 074°03'1174201320.2
2018-Jun-20 01:28N 29°44' W 093°53'11742376.5
2018-Jun-20 00:58N 40°43' W 074°03'1174201319.5
2018-Jun-20 00:58N 29°44' W 093°53'11742379.1
2018-Jun-20 00:28N 40°43' W 074°03'117420929.3
2018-Jun-20 00:25N 29°44' W 093°53'11742788.7
2018-Jun-19 23:59N 40°43' W 074°03'11745112.1
2018-Jun-19 23:46N 29°44' W 093°53'11744345.0
2018-Jun-19 23:29N 40°43' W 074°03'11746564.8
2018-Jun-19 23:19N 29°44' W 093°53'11743644.6
2018-Jun-19 22:59N 40°43' W 074°03'117441858.5
2018-Jun-19 22:58N 29°44' W 093°53'11742488.4
2018-Jun-19 22:29N 40°43' W 074°03'11745155.7
2018-Jun-19 22:16N 29°44' W 093°53'11744318.4
2018-Jun-19 21:59N 40°43' W 074°03'11746605.8
2018-Jun-19 21:49N 29°44' W 093°53'11743644.6
2018-Jun-19 21:29N 40°43' W 074°03'117440651.1
2018-Jun-19 21:28N 29°44' W 093°53'11742492.8
2018-Jun-19 20:59N 40°43' W 074°03'117414886.3
2018-Jun-19 20:55N 29°44' W 093°53'11742788.7
2018-Jun-19 20:29N 40°43' W 074°03'117415099.0
2018-Jun-19 20:25N 29°44' W 093°53'11742779.6
2018-Jun-19 19:59N 40°43' W 074°03'117441858.6
2018-Jun-19 19:58N 29°44' W 093°53'11742488.4
2018-Jun-19 19:29N 40°43' W 074°03'117415099.0
2018-Jun-19 19:25N 29°44' W 093°53'11742783.2
2018-Jun-19 18:59N 40°43' W 074°03'11746564.8
2018-Jun-19 18:49N 29°44' W 093°53'11743166.8
2018-Jun-19 18:26N 40°43' W 074°03'117414939.0
2018-Jun-19 18:22N 29°44' W 093°53'0 0.0
2018-Jun-19 18:01N 29°44' W 093°53'117457131.2
2018-Jun-19 17:59N 40°43' W 074°03'0 0.0
2018-Jun-19 17:29N 40°43' W 074°03'117440651.1
2018-Jun-19 17:28N 29°44' W 093°53'11742492.8
2018-Jun-19 16:59N 40°43' W 074°03'117441858.5
2018-Jun-19 16:58N 29°44' W 093°53'11742488.4
2018-Jun-19 16:29N 40°43' W 074°03'117441858.7
2018-Jun-19 16:28N 29°44' W 093°53'11742489.8
2018-Jun-19 15:59N 40°43' W 074°03'11749150.9
2018-Jun-19 15:52N 29°44' W 093°53'11743155.0
2018-Jun-19 15:29N 40°43' W 074°03'117441448.3
2018-Jun-19 15:28N 29°44' W 093°53'11742491.3
2018-Jun-19 14:59N 40°43' W 074°03'117415045.3
2018-Jun-19 14:55N 29°44' W 093°53'0 0.0
2018-Jun-19 14:28N 29°44' W 093°53'117416386.5
2018-Jun-19 14:23N 40°43' W 074°03'0 0.0
2018-Jun-19 13:59N 40°43' W 074°03'11746544.4
2018-Jun-19 13:49N 29°44' W 093°53'0 0.0
2018-Jun-19 13:31N 29°44' W 093°53'117454905.3
2018-Jun-19 13:29N 40°43' W 074°03'0 0.0
2018-Jun-19 12:59N 40°43' W 074°03'117440651.2
2018-Jun-19 12:58N 29°44' W 093°53'11742494.2
2018-Jun-19 12:29N 40°43' W 074°03'117441046.0
2018-Jun-19 12:28N 29°44' W 093°53'11742486.9
2018-Jun-19 11:59N 40°43' W 074°03'117441448.4
2018-Jun-19 11:58N 29°44' W 093°53'0 0.0
2018-Jun-19 11:31N 29°44' W 093°53'117454201.4
2018-Jun-19 11:29N 40°43' W 074°03'11742455.1
2018-Jun-19 11:01N 29°44' W 093°53'117456369.5
2018-Jun-19 10:59N 40°43' W 074°03'11742450.8
2018-Jun-19 10:31N 29°44' W 093°53'117455627.8
2018-Jun-19 10:29N 40°43' W 074°03'0 0.0
2018-Jun-19 09:59N 40°43' W 074°03'117441448.3
2018-Jun-19 09:58N 29°44' W 093°53'11742489.8
2018-Jun-19 09:29N 40°43' W 074°03'117442277.1
2018-Jun-19 09:28N 29°44' W 093°53'11742488.4
2018-Jun-19 08:59N 40°43' W 074°03'117440651.2
2018-Jun-19 08:58N 29°44' W 093°53'0 0.0
2018-Jun-19 08:31N 29°44' W 093°53'117423357.6
2018-Jun-19 08:27N 40°43' W 074°03'0 0.0
2018-Jun-19 08:00N 40°43' W 074°03'117411875.6
2018-Jun-19 07:55N 29°44' W 093°53'11742927.8
2018-Jun-19 07:30N 40°43' W 074°03'117411875.6
2018-Jun-19 07:25N 29°44' W 093°53'0 0.0
2018-Jun-19 07:01N 29°44' W 093°53'11744227723.4
2018-Jun-19 07:01N 40°43' W 074°03'0 0.0
2018-Jun-19 06:31N 40°43' W 074°03'117423618.6
2018-Jun-19 06:28N 29°44' W 093°53'0 0.0
2018-Jun-19 05:58N 29°44' W 093°53'11742113861.7
2018-Jun-19 05:58N 40°43' W 074°03'11742611.3
2018-Jun-19 05:31N 29°44' W 093°53'11744227738.0
2018-Jun-19 05:31N 40°43' W 074°03'11742136.3
2018-Jun-19 04:58N 29°44' W 093°53'11744227724.1
2018-Jun-19 04:58N 40°43' W 074°03'11742352.7
2018-Jun-19 04:28N 29°44' W 093°53'11741409241.4
2018-Jun-19 04:28N 40°43' W 074°03'0 0.0
2018-Jun-19 03:58N 40°43' W 074°03'0 0.0
2018-Jun-19 03:27N 40°43' W 074°03'117411842.4
2018-Jun-19 03:22N 29°44' W 093°53'11743352.7
2018-Jun-19 03:01N 40°43' W 074°03'117411809.3
2018-Jun-19 02:55N 29°44' W 093°53'11742609.7
2018-Jun-19 02:28N 40°43' W 074°03'117411711.1
2018-Jun-19 02:22N 29°44' W 093°53'11743350.0
2018-Jun-19 02:01N 40°43' W 074°03'11747872.8
2018-Jun-19 01:52N 29°44' W 093°53'11743350.0
2018-Jun-19 01:31N 40°43' W 074°03'117423357.5
2018-Jun-19 01:28N 29°44' W 093°53'11742609.7
2018-Jun-19 01:01N 40°43' W 074°03'0 0.0
2018-Jun-19 00:31N 40°43' W 074°03'117423885.4
2018-Jun-19 00:28N 29°44' W 093°53'11742604.9
2018-Jun-19 00:01N 40°43' W 074°03'117423751.3
2018-Jun-18 23:58N 29°44' W 093°53'11742609.7
2018-Jun-18 23:31N 40°43' W 074°03'11743918.2
2018-Jun-18 23:13N 29°44' W 093°53'11745847.5
2018-Jun-18 23:01N 40°43' W 074°03'117423751.3
2018-Jun-18 22:58N 29°44' W 093°53'11742608.1
2018-Jun-18 22:31N 40°43' W 074°03'11744227723.4
2018-Jun-18 22:31N 29°44' W 093°53'11742347.4
2018-Jun-18 22:00N 40°43' W 074°03'117423751.3
2018-Jun-18 21:58N 29°44' W 093°53'11742348.7
2018-Jun-18 21:28N 40°43' W 074°03'117423618.6
2018-Jun-18 21:25N 29°44' W 093°53'0 0.0
2018-Jun-18 20:58N 29°44' W 093°53'11741056927.4
2018-Jun-18 20:58N 40°43' W 074°03'0 0.0
2018-Jun-18 20:31N 40°43' W 074°03'0 0.0
2018-Jun-18 20:01N 40°43' W 074°03'11747858.2
2018-Jun-18 19:52N 29°44' W 093°53'11743344.7
2018-Jun-18 19:30N 40°43' W 074°03'117423618.6
2018-Jun-18 19:28N 29°44' W 093°53'0 0.0
2018-Jun-18 19:01N 29°44' W 093°53'11744227724.1
2018-Jun-18 19:01N 40°43' W 074°03'0 0.0
2018-Jun-18 18:31N 40°43' W 074°03'117423487.4
2018-Jun-18 18:28N 29°44' W 093°53'11742608.1
2018-Jun-18 18:01N 40°43' W 074°03'117423618.5
2018-Jun-18 17:58N 29°44' W 093°53'11742609.7
2018-Jun-18 17:31N 40°43' W 074°03'117423618.5
2018-Jun-18 17:28N 29°44' W 093°53'0 0.0
2018-Jun-18 17:01N 29°44' W 093°53'11744227724.1
2018-Jun-18 17:01N 40°43' W 074°03'0 0.0
2018-Jun-18 16:28N 40°43' W 074°03'11744227724.1
2018-Jun-18 16:28N 29°44' W 093°53'11742606.5
2018-Jun-18 16:01N 40°43' W 074°03'117423618.5
2018-Jun-18 15:58N 29°44' W 093°53'11742350.0
2018-Jun-18 15:28N 40°43' W 074°03'0 0.0
2018-Jun-18 15:01N 40°43' W 074°03'117423618.5
2018-Jun-18 14:58N 29°44' W 093°53'11742606.5
2018-Jun-18 14:31N 40°43' W 074°03'0 0.0
2018-Jun-18 14:01N 40°43' W 074°03'11742938.0
2018-Jun-18 13:37N 29°44' W 093°53'117411711.1
2018-Jun-18 13:31N 40°43' W 074°03'117411842.3
2018-Jun-18 13:25N 29°44' W 093°53'11742608.1
2018-Jun-18 12:58N 40°43' W 074°03'117411678.8
2018-Jun-18 12:52N 29°44' W 093°53'11742933.9
2018-Jun-18 12:27N 40°43' W 074°03'117424021.1
2018-Jun-18 12:25N 29°44' W 093°53'11742929.8
2018-Jun-18 12:01N 40°43' W 074°03'117411743.6
2018-Jun-18 11:55N 29°44' W 093°53'11742352.7
2018-Jun-18 11:25N 40°43' W 074°03'11747829.1
2018-Jun-18 11:16N 29°44' W 093°53'11744681.8
2018-Jun-18 11:01N 40°43' W 074°03'11747843.6
2018-Jun-18 10:52N 29°44' W 093°53'11743355.3
2018-Jun-18 10:31N 40°43' W 074°03'117423751.3
2018-Jun-18 10:28N 29°44' W 093°53'11742604.9
2018-Jun-18 10:01N 40°43' W 074°03'117411842.3
2018-Jun-18 09:55N 29°44' W 093°53'0 0.0
2018-Jun-18 09:28N 29°44' W 093°53'11744227709.5
2018-Jun-18 09:28N 40°43' W 074°03'0 0.0
2018-Jun-18 09:01N 40°43' W 074°03'11742935.9
2018-Jun-18 08:37N 29°44' W 093°53'117411711.1
2018-Jun-18 08:31N 40°43' W 074°03'117423751.2
2018-Jun-18 08:28N 29°44' W 093°53'11742608.1
2018-Jun-18 08:01N 40°43' W 074°03'11745871.8
2018-Jun-18 07:49N 29°44' W 093°53'11743907.3
2018-Jun-18 07:30N 40°43' W 074°03'11744713.2
2018-Jun-18 07:16N 29°44' W 093°53'11743914.6
2018-Jun-18 06:58N 40°43' W 074°03'117423618.6
2018-Jun-18 06:55N 29°44' W 093°53'11742931.8
2018-Jun-18 06:31N 40°43' W 074°03'11744707.9
2018-Jun-18 06:16N 29°44' W 093°53'11744687.1
2018-Jun-18 06:01N 40°43' W 074°03'117423618.6
2018-Jun-18 05:58N 29°44' W 093°53'11742606.5
2018-Jun-18 05:31N 40°43' W 074°03'117423751.3
2018-Jun-18 05:28N 29°44' W 093°53'0 0.0
2018-Jun-18 05:01N 29°44' W 093°53'11742113854.8
2018-Jun-18 05:01N 40°43' W 074°03'0 0.0
2018-Jun-18 04:31N 40°43' W 074°03'117424021.2
2018-Jun-18 04:28N 29°44' W 093°53'11742606.5
2018-Jun-18 04:01N 40°43' W 074°03'117423357.6
2018-Jun-18 03:58N 29°44' W 093°53'11742488.4
2018-Jun-18 03:29N 40°43' W 074°03'117415045.2
2018-Jun-18 03:25N 29°44' W 093°53'11742786.9
2018-Jun-18 02:59N 40°43' W 074°03'0 0.0
2018-Jun-18 02:29N 40°43' W 074°03'11745162.0
2018-Jun-18 02:16N 29°44' W 093°53'0 0.0
2018-Jun-18 02:01N 29°44' W 093°53'117453515.3
2018-Jun-18 01:59N 40°43' W 074°03'11742459.4
2018-Jun-18 01:31N 29°44' W 093°53'117452846.4
2018-Jun-18 01:29N 40°43' W 074°03'0 0.0
2018-Jun-18 00:59N 40°43' W 074°03'117441858.5
2018-Jun-18 00:58N 29°44' W 093°53'11742488.4
2018-Jun-18 00:29N 40°43' W 074°03'117415262.5
2018-Jun-18 00:25N 29°44' W 093°53'11742777.7
2018-Jun-17 23:59N 40°43' W 074°03'117441858.7
2018-Jun-17 23:58N 29°44' W 093°53'0 0.0
2018-Jun-17 23:31N 29°44' W 093°53'117453515.3
2018-Jun-17 23:29N 40°43' W 074°03'11742455.1
2018-Jun-17 23:01N 29°44' W 093°53'117452846.5
2018-Jun-17 22:59N 40°43' W 074°03'0 0.0
2018-Jun-17 22:29N 40°43' W 074°03'11749170.7
2018-Jun-17 22:22N 29°44' W 093°53'0 0.0
2018-Jun-17 22:01N 29°44' W 093°53'117452193.9
2018-Jun-17 21:59N 40°43' W 074°03'0 0.0
2018-Jun-17 21:29N 40°43' W 074°03'11746605.8
2018-Jun-17 21:19N 29°44' W 093°53'11743647.7
2018-Jun-17 20:59N 40°43' W 074°03'117441858.5
2018-Jun-17 20:58N 29°44' W 093°53'11742486.9
2018-Jun-17 20:29N 40°43' W 074°03'117415153.1
2018-Jun-17 20:25N 29°44' W 093°53'0 0.0
2018-Jun-17 20:01N 29°44' W 093°53'117553538.2
2018-Jun-17 19:59N 40°42' W 074°02'11752457.6
2018-Jun-17 19:31N 29°44' W 093°53'1175264295.9
2018-Jun-17 19:30N 40°42' W 074°02'1 1.4
2018-Jun-17 19:00N 40°43' W 074°02'117526604.0
2018-Jun-17 18:58N 29°44' W 093°53'0 0.0
2018-Jun-17 18:31N 29°44' W 093°53'1175264314.4
2018-Jun-17 18:30N 40°42' W 074°02'1 1.9
2018-Jun-17 18:00N 40°43' W 074°02'117412435.7
2018-Jun-17 17:55N 29°44' W 093°53'11742686.0
2018-Jun-17 17:28N 40°43' W 074°03'117488077.3
2018-Jun-17 17:28N 29°44' W 093°53'0 0.0
2018-Jun-17 16:58N 29°44' W 093°53'117431550.3
2018-Jun-17 16:55N 40°43' W 074°03'11742843.1
2018-Jun-17 16:31N 29°44' W 093°53'117431316.5
2018-Jun-17 16:28N 40°43' W 074°03'11742537.6
2018-Jun-17 16:01N 29°44' W 093°53'117432272.7
2018-Jun-17 15:58N 40°43' W 074°03'11742287.7
2018-Jun-17 15:28N 29°44' W 093°53'117431787.5
2018-Jun-17 15:25N 40°43' W 074°03'0 0.0
2018-Jun-17 14:58N 40°43' W 074°03'117496084.6
2018-Jun-17 14:58N 29°44' W 093°53'11742410.3
2018-Jun-17 14:28N 40°43' W 074°03'117491907.0
2018-Jun-17 14:28N 29°44' W 093°53'11742407.6
2018-Jun-17 13:58N 40°43' W 074°03'117418958.4
2018-Jun-17 13:55N 29°44' W 093°53'0 0.0
2018-Jun-17 13:31N 29°44' W 093°53'117431550.1
2018-Jun-17 13:28N 40°43' W 074°03'0 0.0
2018-Jun-17 12:58N 40°43' W 074°03'117418706.7
2018-Jun-17 12:55N 29°44' W 093°53'0 0.0
2018-Jun-17 12:31N 29°44' W 093°53'117431550.1
2018-Jun-17 12:28N 40°43' W 074°03'0 0.0
2018-Jun-17 11:58N 40°43' W 074°03'117488077.6
2018-Jun-17 11:58N 29°44' W 093°53'1 1.1
2018-Jun-17 11:29N 29°44' W 093°53'117496047.4
2018-Jun-17 11:28N 40°43' W 074°03'11742495.2
2018-Jun-17 11:00N 29°43' W 093°52'117439503.1
2018-Jun-17 10:58N 40°43' W 074°03'0 0.0
2018-Jun-17 10:28N 40°43' W 074°03'0 0.0
2018-Jun-17 09:55N 40°43' W 074°03'0 0.0
2018-Jun-17 09:28N 40°43' W 074°03'0 0.0
2018-Jun-17 08:55N 40°43' W 074°03'0 0.0
2018-Jun-17 08:28N 40°43' W 074°03'0 0.0
2018-Jun-17 07:55N 40°43' W 074°03'0 0.0
2018-Jun-17 07:28N 40°43' W 074°03'0 0.0
2018-Jun-17 06:58N 40°43' W 074°03'0 0.0
2018-Jun-17 06:28N 40°43' W 074°03'0 0.0
2018-Jun-17 05:58N 40°43' W 074°03'0 0.0
2018-Jun-17 05:28N 40°43' W 074°03'0 0.0
2018-Jun-17 04:58N 40°43' W 074°03'0 0.0
2018-Jun-17 04:28N 40°43' W 074°03'0 0.0
2018-Jun-17 03:58N 40°43' W 074°03'0 0.0
2018-Jun-17 03:28N 40°43' W 074°03'0 0.0
2018-Jun-17 02:58N 40°43' W 074°03'0 0.0
2018-Jun-17 02:28N 40°43' W 074°03'0 0.0
2018-Jun-17 01:58N 40°43' W 074°03'0 0.0
2018-Jun-17 01:25N 40°43' W 074°03'0 0.0
2018-Jun-17 00:58N 40°43' W 074°03'0 0.0
2018-Jun-17 00:28N 40°43' W 074°03'0 0.0
2018-Jun-16 23:58N 40°43' W 074°03'0 0.0
2018-Jun-16 23:28N 40°43' W 074°03'0 0.0
2018-Jun-16 22:58N 40°43' W 074°03'0 0.1
2018-Jun-16 22:30N 40°43' W 074°03'2 4.1
2018-Jun-16 22:00N 40°41' W 074°01'2 4.5
2018-Jun-16 21:30N 40°39' W 074°02'1 1.6
2018-Jun-16 21:00N 40°39' W 074°03'1 2.7
2018-Jun-16 20:30N 40°40' W 074°03'2 3.5
2018-Jun-16 20:00N 40°42' W 074°02'1 2.0
2018-Jun-16 19:28N 40°43' W 074°03'0 0.0
2018-Jun-16 18:58N 40°43' W 074°03'0 0.0
2018-Jun-16 18:28N 40°43' W 074°03'0 0.0
2018-Jun-16 17:58N 40°43' W 074°03'0 0.0
2018-Jun-16 17:28N 40°43' W 074°03'0 0.0
2018-Jun-16 16:58N 40°43' W 074°03'0 0.0
2018-Jun-16 16:28N 40°43' W 074°03'0 0.0
2018-Jun-16 15:58N 40°43' W 074°03'0 0.0
2018-Jun-16 15:28N 40°43' W 074°03'0 0.0
2018-Jun-16 14:58N 40°43' W 074°03'0 0.0
2018-Jun-16 14:28N 40°43' W 074°03'0 0.0
2018-Jun-16 13:58N 40°43' W 074°03'0 0.0
2018-Jun-16 13:28N 40°43' W 074°03'0 0.0
2018-Jun-16 12:58N 40°43' W 074°03'0 0.0
2018-Jun-16 12:28N 40°43' W 074°03'0 0.0
2018-Jun-16 11:55N 40°43' W 074°03'0 0.0
2018-Jun-16 11:28N 40°43' W 074°03'0 0.0
2018-Jun-16 10:55N 40°43' W 074°03'0 0.0
2018-Jun-16 10:28N 40°43' W 074°03'0 0.0
2018-Jun-16 09:58N 40°43' W 074°03'0 0.0
2018-Jun-16 09:25N 40°43' W 074°03'0 0.0
2018-Jun-16 08:58N 40°43' W 074°03'0 0.0
2018-Jun-16 08:28N 40°43' W 074°03'0 0.0
2018-Jun-16 07:58N 40°43' W 074°03'0 0.0
2018-Jun-16 07:28N 40°43' W 074°03'0 0.0
2018-Jun-16 06:58N 40°43' W 074°03'0 0.0
2018-Jun-16 06:28N 40°43' W 074°03'0 0.0
2018-Jun-16 05:58N 40°43' W 074°03'0 0.0
2018-Jun-16 05:28N 40°43' W 074°03'0 0.0
2018-Jun-16 04:58N 40°43' W 074°03'0 0.0
2018-Jun-16 04:28N 40°43' W 074°03'0 0.0
2018-Jun-16 03:58N 40°43' W 074°03'0 0.0
2018-Jun-16 03:28N 40°43' W 074°03'0 0.0
2018-Jun-16 02:58N 40°43' W 074°03'0 0.0
2018-Jun-16 02:28N 40°43' W 074°03'0 0.0
2018-Jun-16 01:58N 40°43' W 074°03'0 0.0
2018-Jun-16 01:28N 40°43' W 074°03'0 0.0
2018-Jun-16 00:58N 40°43' W 074°03'0 0.0
2018-Jun-16 00:28N 40°43' W 074°03'0 0.0
2018-Jun-15 23:58N 40°43' W 074°03'0 0.0
2018-Jun-15 23:28N 40°43' W 074°03'0 0.0
2018-Jun-15 22:55N 40°43' W 074°03'0 0.0
2018-Jun-15 22:28N 40°43' W 074°03'0 0.0
2018-Jun-15 21:58N 40°43' W 074°03'0 0.0
2018-Jun-15 21:28N 40°43' W 074°03'0 0.0
2018-Jun-15 20:58N 40°43' W 074°03'0 0.0
2018-Jun-15 20:28N 40°43' W 074°03'0 0.0
2018-Jun-15 19:49N 40°43' W 074°03'0 0.0
2018-Jun-15 19:28N 40°43' W 074°03'0 0.0
2018-Jun-15 18:58N 40°43' W 074°03'0 0.0
2018-Jun-15 18:28N 40°43' W 074°03'0 0.0
2018-Jun-15 17:49N 40°43' W 074°03'0 0.0
2018-Jun-15 17:28N 40°43' W 074°03'0 0.0
2018-Jun-15 16:58N 40°43' W 074°03'0 0.0
2018-Jun-15 16:28N 40°43' W 074°03'0 0.0
2018-Jun-15 15:58N 40°43' W 074°03'0 0.0
2018-Jun-15 15:28N 40°43' W 074°03'0 0.0
2018-Jun-15 14:58N 40°43' W 074°03'0 0.0
2018-Jun-15 14:28N 40°43' W 074°03'0 0.0
2018-Jun-15 13:58N 40°43' W 074°03'0 0.0
2018-Jun-15 13:28N 40°43' W 074°03'0 0.0
2018-Jun-15 12:58N 40°43' W 074°03'0 0.0
2018-Jun-15 12:28N 40°43' W 074°03'0 0.0
2018-Jun-15 11:58N 40°43' W 074°03'0 0.0
2018-Jun-15 11:28N 40°43' W 074°03'0 0.0
2018-Jun-15 10:58N 40°43' W 074°03'0 0.0
2018-Jun-15 10:28N 40°43' W 074°03'0 0.0
2018-Jun-15 09:58N 40°43' W 074°03'0 0.0
2018-Jun-15 09:25N 40°43' W 074°03'0 0.0
2018-Jun-15 08:58N 40°43' W 074°03'0 0.0
2018-Jun-15 08:28N 40°43' W 074°03'0 0.0
2018-Jun-15 07:58N 40°43' W 074°03'0 0.0
2018-Jun-15 07:28N 40°43' W 074°03'0 0.0
2018-Jun-15 06:58N 40°43' W 074°03'0 0.0
2018-Jun-15 06:25N 40°43' W 074°03'0 0.0
2018-Jun-15 05:58N 40°43' W 074°03'0 0.0
2018-Jun-15 05:28N 40°43' W 074°03'0 0.0
2018-Jun-15 04:58N 40°43' W 074°03'0 0.0
2018-Jun-15 04:28N 40°43' W 074°03'0 0.0
2018-Jun-15 03:58N 40°43' W 074°03'0 0.0
2018-Jun-15 03:28N 40°43' W 074°03'0 0.0
2018-Jun-15 02:55N 40°43' W 074°03'0 0.0
2018-Jun-15 02:28N 40°43' W 074°03'0 0.0
2018-Jun-15 01:58N 40°43' W 074°03'0 0.0
2018-Jun-15 01:28N 40°43' W 074°03'0 0.0
2018-Jun-15 00:58N 40°43' W 074°03'0 0.0
2018-Jun-15 00:29N 40°43' W 074°03'0 0.0
2018-Jun-14 23:56N 40°43' W 074°03'0 0.0
2018-Jun-14 23:29N 40°43' W 074°03'0 0.0
2018-Jun-14 22:59N 40°43' W 074°03'0 0.0
2018-Jun-14 22:31N 40°43' W 074°03'0 0.0
2018-Jun-14 22:01N 40°43' W 074°03'0 0.0
2018-Jun-14 21:28N 40°43' W 074°03'0 0.0
2018-Jun-14 21:01N 40°43' W 074°03'0 0.0
2018-Jun-14 20:31N 40°43' W 074°03'0 0.0
2018-Jun-14 20:01N 40°43' W 074°03'0 0.0
2018-Jun-14 19:31N 40°43' W 074°03'0 0.0
2018-Jun-14 18:58N 40°43' W 074°03'0 0.0
2018-Jun-14 18:22N 40°43' W 074°03'0 0.0
2018-Jun-14 18:01N 40°43' W 074°03'0 0.0
2018-Jun-14 17:28N 40°43' W 074°03'0 0.0
2018-Jun-14 17:01N 40°43' W 074°03'0 0.0
2018-Jun-14 16:28N 40°43' W 074°03'0 0.0
2018-Jun-14 16:01N 40°43' W 074°03'0 0.0
2018-Jun-14 15:31N 40°43' W 074°03'0 0.0
2018-Jun-14 15:01N 40°43' W 074°03'0 0.0
2018-Jun-14 14:28N 40°43' W 074°03'0 0.0
2018-Jun-14 14:01N 40°43' W 074°03'0 0.0
2018-Jun-14 13:31N 40°43' W 074°03'0 0.0
2018-Jun-14 13:01N 40°43' W 074°03'0 0.0
2018-Jun-14 12:31N 40°43' W 074°03'0 0.0
2018-Jun-14 11:58N 40°43' W 074°03'0 0.0
2018-Jun-14 11:28N 40°43' W 074°03'0 0.0
2018-Jun-14 11:01N 40°43' W 074°03'0 0.0
2018-Jun-14 10:27N 40°43' W 074°03'0 0.0
2018-Jun-14 10:01N 40°43' W 074°03'0 0.0
2018-Jun-14 09:28N 40°43' W 074°03'0 0.0
2018-Jun-14 08:58N 40°43' W 074°03'0 0.0
2018-Jun-14 08:28N 40°43' W 074°03'0 0.0
2018-Jun-14 08:01N 40°43' W 074°03'0 0.0
2018-Jun-14 07:31N 40°43' W 074°03'0 0.0
2018-Jun-14 07:01N 40°43' W 074°03'0 0.0
2018-Jun-14 06:31N 40°43' W 074°03'0 0.0
2018-Jun-14 06:01N 40°43' W 074°03'0 0.0
2018-Jun-14 05:28N 40°43' W 074°03'0 0.0
2018-Jun-14 04:58N 40°43' W 074°03'0 0.0
2018-Jun-14 04:31N 40°43' W 074°03'0 0.0
2018-Jun-14 04:01N 40°43' W 074°03'0 0.0
2018-Jun-14 03:31N 40°43' W 074°03'0 0.0
2018-Jun-14 03:01N 40°43' W 074°03'0 0.0
2018-Jun-14 02:31N 40°43' W 074°03'0 0.0
2018-Jun-14 02:01N 40°43' W 074°03'0 0.0
2018-Jun-14 01:31N 40°43' W 074°03'0 0.0
2018-Jun-14 01:01N 40°43' W 074°03'0 0.0
2018-Jun-14 00:28N 40°43' W 074°03'0 0.0
2018-Jun-14 00:01N 40°43' W 074°03'0 0.0
2018-Jun-13 23:28N 40°43' W 074°03'0 0.0
2018-Jun-13 23:01N 40°43' W 074°03'0 0.0
2018-Jun-13 22:31N 40°43' W 074°03'0 0.0
2018-Jun-13 21:58N 40°43' W 074°03'  

Dump ship's entire track history